Observation data for Wall on 07/18/2019      Previous  Date  Next       Current Mesonet Observations  Soil Data  Daily Summary Page  Observations in Plain Language
KWA1 180500Z 14011KT 28/20 A30 RMK A01 T02820196  RH  059%=      5-min Rain = 0
KWA1 180501Z 14011KT 28/20 A30 RMK A01 T02830196  RH  059%=      5-min Rain = 0
KWA1 180502Z 14010KT 28/20 A30 RMK A01 T02820196  RH  059%=      5-min Rain = 0
KWA1 180503Z 14010KT 28/20 A30 RMK A01 T02820196  RH  059%=      5-min Rain = 0
KWA1 180504Z 14009KT 28/20 A30 RMK A01 T02820196  RH  060%=      5-min Rain = 0
KWA1 180505Z 14009KT 28/20 A30 RMK A01 T02810196  RH  060%=      5-min Rain = 0
KWA1 180506Z 14010KT 28/20 A30 RMK A01 T02810196  RH  060%=      5-min Rain = 0
KWA1 180507Z 14010KT 28/20 A30 RMK A01 T02810196  RH  060%=      5-min Rain = 0
KWA1 180508Z 14009KT 28/20 A30 RMK A01 T02810196  RH  060%=      5-min Rain = 0
KWA1 180509Z 14010KT 28/20 A30 RMK A01 T02810196  RH  060%=      5-min Rain = 0
KWA1 180510Z 14011KT 28/20 A30 RMK A01 T02800196  RH  060%=      5-min Rain = 0
KWA1 180511Z 14011KT 28/20 A30 RMK A01 T02800196  RH  060%=      5-min Rain = 0
KWA1 180512Z 14011KT 28/20 A30 RMK A01 T02800196  RH  060%=      5-min Rain = 0
KWA1 180513Z 14010KT 28/20 A30 RMK A01 T02800196  RH  060%=      5-min Rain = 0
KWA1 180514Z 14011KT 28/20 A30 RMK A01 T02800196  RH  060%=      5-min Rain = 0
KWA1 180515Z 14011KT 28/20 A30 RMK A01 T02800196  RH  060%=      5-min Rain = 0
KWA1 180516Z 14011KT 28/20 A30 RMK A01 T02800196  RH  060%=      5-min Rain = 0
KWA1 180517Z 14010KT 28/20 A30 RMK A01 T02800196  RH  060%=      5-min Rain = 0
KWA1 180518Z 14011KT 28/20 A30 RMK A01 T02800196  RH  060%=      5-min Rain = 0
KWA1 180519Z 15012KT 28/20 A30 RMK A01 T02800197  RH  060%=      5-min Rain = 0
KWA1 180520Z 14011KT 28/20 A30 RMK A01 T02800196  RH  060%=      5-min Rain = 0
KWA1 180521Z 14010KT 28/20 A30 RMK A01 T02800196  RH  060%=      5-min Rain = 0
KWA1 180522Z 14011KT 28/20 A30 RMK A01 T02800196  RH  060%=      5-min Rain = 0
KWA1 180523Z 15012KT 28/20 A30 RMK A01 T02800197  RH  060%=      5-min Rain = 0
KWA1 180524Z 14010KT 28/20 A30 RMK A01 T02800196  RH  060%=      5-min Rain = 0
KWA1 180525Z 14010KT 28/20 A30 RMK A01 T02800196  RH  060%=      5-min Rain = 0
KWA1 180526Z 15011KT 28/20 A30 RMK A01 T02800197  RH  060%=      5-min Rain = 0
KWA1 180527Z 14010KT 28/20 A30 RMK A01 T02800197  RH  061%=      5-min Rain = 0
KWA1 180528Z 15011KT 28/20 A30 RMK A01 T02800196  RH  061%=      5-min Rain = 0
KWA1 180529Z 14010KT 28/20 A30 RMK A01 T02800197  RH  061%=      5-min Rain = 0
KWA1 180530Z 14011KT 28/20 A30 RMK A01 T02800197  RH  061%=      5-min Rain = 0
KWA1 180531Z 14013KT 28/20 A30 RMK A01 T02790197  RH  061%=      5-min Rain = 0
KWA1 180532Z 15011KT 28/20 A30 RMK A01 T02790197  RH  061%=      5-min Rain = 0
KWA1 180533Z 15012KT 28/20 A30 RMK A01 T02800197  RH  061%=      5-min Rain = 0
KWA1 180534Z 14013KT 28/20 A30 RMK A01 T02790197  RH  061%=      5-min Rain = 0
KWA1 180535Z 15010KT 28/20 A30 RMK A01 T02790197  RH  061%=      5-min Rain = 0
KWA1 180536Z 14011KT 28/20 A30 RMK A01 T02790197  RH  061%=      5-min Rain = 0
KWA1 180537Z 15011KT 28/20 A30 RMK A01 T02790197  RH  061%=      5-min Rain = 0
KWA1 180538Z 14012KT 28/20 A30 RMK A01 T02790197  RH  061%=      5-min Rain = 0
KWA1 180539Z 14012KT 28/20 A30 RMK A01 T02790197  RH  061%=      5-min Rain = 0
KWA1 180540Z 14011KT 28/20 A30 RMK A01 T02790197  RH  061%=      5-min Rain = 0
KWA1 180541Z 14013KT 28/20 A30 RMK A01 T02790197  RH  061%=      5-min Rain = 0
KWA1 180542Z 14012KT 28/20 A30 RMK A01 T02800198  RH  061%=      5-min Rain = 0
KWA1 180543Z 15011G16KT 28/20 A30 RMK A01 T02800198  RH  061%=      5-min Rain = 0
KWA1 180544Z 14014KT 28/20 A30 RMK A01 T02800198  RH  061%=      5-min Rain = 0
KWA1 180545Z 14013KT 28/20 A2999 RMK A01 T02790198  RH  061%=      5-min Rain = 0
KWA1 180546Z 15012KT 28/20 A2999 RMK A01 T02790198  RH  061%=      5-min Rain = 0
KWA1 180547Z 14013KT 28/20 A2999 RMK A01 T02790198  RH  061%=      5-min Rain = 0
KWA1 180548Z 14013KT 28/20 A2999 RMK A01 T02790198  RH  061%=      5-min Rain = 0
KWA1 180549Z 14012KT 28/20 A2999 RMK A01 T02790198  RH  061%=      5-min Rain = 0
KWA1 180550Z 14013KT 28/20 A2999 RMK A01 T02790199  RH  062%=      5-min Rain = 0
KWA1 180551Z 14014KT 28/20 A2999 RMK A01 T02790199  RH  062%=      5-min Rain = 0
KWA1 180552Z 14012KT 28/20 A2999 RMK A01 T02790199  RH  062%=      5-min Rain = 0
KWA1 180553Z 14012KT 28/20 A2999 RMK A01 T02800200  RH  062%=      5-min Rain = 0
KWA1 180554Z 14014KT 28/20 A2999 RMK A01 T02790199  RH  062%=      5-min Rain = 0
KWA1 180555Z 14015KT 28/20 A2999 RMK A01 T02790199  RH  062%=      5-min Rain = 0
KWA1 180556Z 14013KT 28/20 A2999 RMK A01 T02790199  RH  062%=      5-min Rain = 0
KWA1 180557Z 15013KT 28/20 A2999 RMK A01 T02790200  RH  062%=      5-min Rain = 0
KWA1 180558Z 14014KT 28/20 A2999 RMK A01 T02790200  RH  062%=      5-min Rain = 0
KWA1 180559Z 14012KT 28/20 A2999 RMK A01 T02790200  RH  062%=      5-min Rain = 0
KWA1 180600Z 14014KT 28/20 A2999 RMK A01 T02790200  RH  062%=      5-min Rain = 0
KWA1 180601Z 14014KT 28/20 A2999 RMK A01 T02790201  RH  062%=      5-min Rain = 0
KWA1 180602Z 14013KT 28/20 A2999 RMK A01 T02780200  RH  062%=      5-min Rain = 0
KWA1 180603Z 14014KT 28/20 A2999 RMK A01 T02780201  RH  063%=      5-min Rain = 0
KWA1 180604Z 15013KT 28/20 A2999 RMK A01 T02790201  RH  063%=      5-min Rain = 0
KWA1 180605Z 14013KT 28/20 A2999 RMK A01 T02780201  RH  063%=      5-min Rain = 0
KWA1 180606Z 14013KT 28/20 A2999 RMK A01 T02780201  RH  063%=      5-min Rain = 0
KWA1 180607Z 14013KT 28/20 A2999 RMK A01 T02780201  RH  063%=      5-min Rain = 0
KWA1 180608Z 14012KT 28/20 A2999 RMK A01 T02780202  RH  063%=      5-min Rain = 0
KWA1 180609Z 14014KT 28/20 A2999 RMK A01 T02770201  RH  063%=      5-min Rain = 0
KWA1 180610Z 14013KT 28/20 A2999 RMK A01 T02770202  RH  063%=      5-min Rain = 0
KWA1 180611Z 15013KT 28/20 A2999 RMK A01 T02770202  RH  063%=      5-min Rain = 0
KWA1 180612Z 14014KT 28/20 A2999 RMK A01 T02770202  RH  064%=      5-min Rain = 0
KWA1 180613Z 14013KT 28/20 A2999 RMK A01 T02780202  RH  064%=      5-min Rain = 0
KWA1 180614Z 14013KT 28/20 A2999 RMK A01 T02780203  RH  064%=      5-min Rain = 0
KWA1 180615Z 15012KT 28/20 A2999 RMK A01 T02770202  RH  064%=      5-min Rain = 0
KWA1 180616Z 15011KT 28/20 A2999 RMK A01 T02770203  RH  064%=      5-min Rain = 0
KWA1 180617Z 14011KT 28/20 A2999 RMK A01 T02770202  RH  064%=      5-min Rain = 0
KWA1 180618Z 15011KT 28/20 A2999 RMK A01 T02760202  RH  064%=      5-min Rain = 0
KWA1 180619Z 15012KT 28/20 A2999 RMK A01 T02760203  RH  064%=      5-min Rain = 0
KWA1 180620Z 14012KT 28/20 A2999 RMK A01 T02760203  RH  064%=      5-min Rain = 0
KWA1 180621Z 14012KT 28/20 A2999 RMK A01 T02760203  RH  064%=      5-min Rain = 0
KWA1 180622Z 15012KT 28/20 A2999 RMK A01 T02760203  RH  065%=      5-min Rain = 0
KWA1 180623Z 14011KT 28/20 A2999 RMK A01 T02760203  RH  065%=      5-min Rain = 0
KWA1 180624Z 14011KT 28/20 A2999 RMK A01 T02760204  RH  065%=      5-min Rain = 0
KWA1 180625Z 14012KT 28/20 A2999 RMK A01 T02750203  RH  065%=      5-min Rain = 0
KWA1 180626Z 14011KT 28/20 A2999 RMK A01 T02750204  RH  065%=      5-min Rain = 0
KWA1 180627Z 15012KT 28/20 A2999 RMK A01 T02750204  RH  065%=      5-min Rain = 0
KWA1 180628Z 14011KT 28/20 A2999 RMK A01 T02750204  RH  065%=      5-min Rain = 0
KWA1 180629Z 14012KT 28/20 A2999 RMK A01 T02750204  RH  065%=      5-min Rain = 0
KWA1 180630Z 14012KT 28/20 A2999 RMK A01 T02750204  RH  065%=      5-min Rain = 0
KWA1 180631Z 14011KT 27/20 A2999 RMK A01 T02740204  RH  065%=      5-min Rain = 0
KWA1 180632Z 14013KT 27/20 A2999 RMK A01 T02740204  RH  065%=      5-min Rain = 0
KWA1 180633Z 14013KT 28/20 A2999 RMK A01 T02750204  RH  065%=      5-min Rain = 0
KWA1 180634Z 14013KT 27/20 A2999 RMK A01 T02740204  RH  065%=      5-min Rain = 0
KWA1 180635Z 14013KT 27/20 A2999 RMK A01 T02740204  RH  065%=      5-min Rain = 0
KWA1 180636Z 14013KT 27/20 A2999 RMK A01 T02740204  RH  066%=      5-min Rain = 0
KWA1 180637Z 14012KT 27/20 A2999 RMK A01 T02740204  RH  066%=      5-min Rain = 0
KWA1 180638Z 14012KT 27/21 A2999 RMK A01 T02740205  RH  066%=      5-min Rain = 0
KWA1 180639Z 14014KT 27/20 A2999 RMK A01 T02740204  RH  066%=      5-min Rain = 0
KWA1 180640Z 14013KT 27/21 A2999 RMK A01 T02740205  RH  066%=      5-min Rain = 0
KWA1 180641Z 14013KT 27/21 A2999 RMK A01 T02740205  RH  066%=      5-min Rain = 0
KWA1 180642Z 14012KT 27/21 A2999 RMK A01 T02740205  RH  066%=      5-min Rain = 0
KWA1 180643Z 14013KT 27/21 A2999 RMK A01 T02730205  RH  066%=      5-min Rain = 0
KWA1 180644Z 14013KT 27/21 A2999 RMK A01 T02740205  RH  066%=      5-min Rain = 0
KWA1 180645Z 14012KT 27/21 A2999 RMK A01 T02730205  RH  066%=      5-min Rain = 0
KWA1 180646Z 14013KT 27/21 A2999 RMK A01 T02730205  RH  066%=      5-min Rain = 0
KWA1 180647Z 15012KT 27/21 A2999 RMK A01 T02730205  RH  067%=      5-min Rain = 0
KWA1 180648Z 14011KT 27/21 A2999 RMK A01 T02730205  RH  067%=      5-min Rain = 0
KWA1 180649Z 14013KT 27/21 A2999 RMK A01 T02720205  RH  067%=      5-min Rain = 0
KWA1 180650Z 15011KT 27/21 A2999 RMK A01 T02720205  RH  067%=      5-min Rain = 0
KWA1 180651Z 15012KT 27/21 A2999 RMK A01 T02720206  RH  067%=      5-min Rain = 0
KWA1 180652Z 15013KT 27/21 A2999 RMK A01 T02720206  RH  067%=      5-min Rain = 0
KWA1 180653Z 15011KT 27/21 A2999 RMK A01 T02720206  RH  067%=      5-min Rain = 0
KWA1 180654Z 15010KT 27/21 A2999 RMK A01 T02720206  RH  067%=      5-min Rain = 0
KWA1 180655Z 15010KT 27/21 A2999 RMK A01 T02720206  RH  067%=      5-min Rain = 0
KWA1 180656Z 14011KT 27/21 A2999 RMK A01 T02710206  RH  067%=      5-min Rain = 0
KWA1 180657Z 15011KT 27/21 A2999 RMK A01 T02710206  RH  068%=      5-min Rain = 0
KWA1 180658Z 15011KT 27/21 A2999 RMK A01 T02710206  RH  068%=      5-min Rain = 0
KWA1 180659Z 15011KT 27/21 A2999 RMK A01 T02700206  RH  068%=      5-min Rain = 0
KWA1 180700Z 15012KT 27/21 A2999 RMK A01 T02700207  RH  068%=      5-min Rain = 0
KWA1 180701Z 15010KT 27/21 A2999 RMK A01 T02700207  RH  068%=      5-min Rain = 0
KWA1 180702Z 15012KT 27/21 A2999 RMK A01 T02700207  RH  068%=      5-min Rain = 0
KWA1 180703Z 15012KT 27/21 A2999 RMK A01 T02700207  RH  068%=      5-min Rain = 0
KWA1 180704Z 15010KT 27/21 A2999 RMK A01 T02700207  RH  068%=      5-min Rain = 0
KWA1 180705Z 15011KT 27/21 A2999 RMK A01 T02700207  RH  069%=      5-min Rain = 0
KWA1 180706Z 15009KT 27/21 A2999 RMK A01 T02700207  RH  069%=      5-min Rain = 0
KWA1 180707Z 15010KT 27/21 A2999 RMK A01 T02690207  RH  069%=      5-min Rain = 0
KWA1 180708Z 15009KT 27/21 A2999 RMK A01 T02690208  RH  069%=      5-min Rain = 0
KWA1 180709Z 15010KT 27/21 A2999 RMK A01 T02690207  RH  069%=      5-min Rain = 0
KWA1 180710Z 15009G14KT 27/21 A2999 RMK A01 T02690208  RH  069%=      5-min Rain = 0
KWA1 180711Z 16012KT 27/21 A30 RMK A01 T02690208  RH  069%=      5-min Rain = 0
KWA1 180712Z 16010KT 27/21 A30 RMK A01 T02690208  RH  069%=      5-min Rain = 0
KWA1 180713Z 15010KT 27/21 A30 RMK A01 T02690208  RH  069%=      5-min Rain = 0
KWA1 180714Z 15011KT 27/21 A30 RMK A01 T02690209  RH  070%=      5-min Rain = 0
KWA1 180715Z 16012KT 27/21 A30 RMK A01 T02690209  RH  070%=      5-min Rain = 0
KWA1 180716Z 15011KT 27/21 A30 RMK A01 T02690209  RH  070%=      5-min Rain = 0
KWA1 180717Z 15013KT 27/21 A30 RMK A01 T02690209  RH  070%=      5-min Rain = 0
KWA1 180718Z 16014KT 27/21 A30 RMK A01 T02690210  RH  070%=      5-min Rain = 0
KWA1 180719Z 15013KT 27/21 A30 RMK A01 T02690210  RH  070%=      5-min Rain = 0
KWA1 180720Z 15012KT 27/21 A30 RMK A01 T02700211  RH  070%=      5-min Rain = 0
KWA1 180721Z 16014KT 27/21 A2999 RMK A01 T02690211  RH  070%=      5-min Rain = 0
KWA1 180722Z 15014KT 27/21 A2999 RMK A01 T02690211  RH  070%=      5-min Rain = 0
KWA1 180723Z 15013KT 27/21 A2999 RMK A01 T02690211  RH  070%=      5-min Rain = 0
KWA1 180724Z 15011KT 27/21 A2999 RMK A01 T02700211  RH  070%=      5-min Rain = 0
KWA1 180725Z 16013KT 27/21 A2999 RMK A01 T02690211  RH  071%=      5-min Rain = 0
KWA1 180726Z 15015KT 27/21 A2999 RMK A01 T02700212  RH  071%=      5-min Rain = 0
KWA1 180727Z 15013KT 27/21 A2999 RMK A01 T02690212  RH  071%=      5-min Rain = 0
KWA1 180728Z 15011KT 27/21 A2999 RMK A01 T02690212  RH  071%=      5-min Rain = 0
KWA1 180729Z 15013KT 27/21 A2999 RMK A01 T02690212  RH  071%=      5-min Rain = 0
KWA1 180730Z 16013KT 27/21 A2999 RMK A01 T02690212  RH  071%=      5-min Rain = 0
KWA1 180731Z 15013KT 27/21 A2999 RMK A01 T02690212  RH  071%=      5-min Rain = 0
KWA1 180732Z 15013KT 27/21 A2999 RMK A01 T02690212  RH  071%=      5-min Rain = 0
KWA1 180733Z 15013KT 27/21 A2999 RMK A01 T02690212  RH  071%=      5-min Rain = 0
KWA1 180734Z 15012KT 27/21 A2999 RMK A01 T02690213  RH  071%=      5-min Rain = 0
KWA1 180735Z 15014KT 27/21 A2999 RMK A01 T02680212  RH  071%=      5-min Rain = 0
KWA1 180736Z 15014KT 27/21 A2999 RMK A01 T02680212  RH  071%=      5-min Rain = 0
KWA1 180737Z 15013KT 27/21 A2999 RMK A01 T02680213  RH  071%=      5-min Rain = 0
KWA1 180738Z 15013KT 27/21 A2999 RMK A01 T02680213  RH  071%=      5-min Rain = 0
KWA1 180739Z 15010KT 27/21 A2999 RMK A01 T02680212  RH  071%=      5-min Rain = 0
KWA1 180740Z 15010KT 27/21 A2999 RMK A01 T02680212  RH  072%=      5-min Rain = 0
KWA1 180741Z 15011KT 27/21 A2999 RMK A01 T02670212  RH  072%=      5-min Rain = 0
KWA1 180742Z 15012KT 27/21 A2999 RMK A01 T02670212  RH  072%=      5-min Rain = 0
KWA1 180743Z 15011KT 27/21 A2999 RMK A01 T02670212  RH  072%=      5-min Rain = 0
KWA1 180744Z 15013KT 27/21 A2999 RMK A01 T02670212  RH  072%=      5-min Rain = 0
KWA1 180745Z 15013KT 27/21 A2999 RMK A01 T02670213  RH  072%=      5-min Rain = 0
KWA1 180746Z 15011KT 27/21 A2999 RMK A01 T02670212  RH  072%=      5-min Rain = 0
KWA1 180747Z 15012KT 27/21 A2999 RMK A01 T02670213  RH  072%=      5-min Rain = 0
KWA1 180748Z 15011KT 27/21 A2999 RMK A01 T02670213  RH  072%=      5-min Rain = 0
KWA1 180749Z 15014KT 27/21 A2999 RMK A01 T02660213  RH  072%=      5-min Rain = 0
KWA1 180750Z 15013KT 27/21 A2999 RMK A01 T02660213  RH  073%=      5-min Rain = 0
KWA1 180751Z 15011KT 27/21 A2999 RMK A01 T02670213  RH  073%=      5-min Rain = 0
KWA1 180752Z 15013KT 27/21 A2999 RMK A01 T02660213  RH  073%=      5-min Rain = 0
KWA1 180753Z 15011KT 27/21 A2999 RMK A01 T02660213  RH  073%=      5-min Rain = 0
KWA1 180754Z 15013KT 27/21 A2999 RMK A01 T02660213  RH  073%=      5-min Rain = 0
KWA1 180755Z 15011KT 27/21 A2999 RMK A01 T02660214  RH  073%=      5-min Rain = 0
KWA1 180756Z 16012KT 27/21 A2999 RMK A01 T02660214  RH  073%=      5-min Rain = 0
KWA1 180757Z 16011KT 27/21 A2999 RMK A01 T02660214  RH  073%=      5-min Rain = 0
KWA1 180758Z 16011KT 27/21 A2999 RMK A01 T02660214  RH  073%=      5-min Rain = 0
KWA1 180759Z 16010KT 27/21 A2999 RMK A01 T02650214  RH  073%=      5-min Rain = 0
KWA1 180800Z 15011G16KT 27/21 A2999 RMK A01 T02650214  RH  073%=      5-min Rain = 0
KWA1 180801Z 15015KT 26/21 A2999 RMK A01 T02640214  RH  074%=      5-min Rain = 0
KWA1 180802Z 16015KT 27/21 A2999 RMK A01 T02650214  RH  074%=      5-min Rain = 0
KWA1 180803Z 15012G17KT 27/21 A2999 RMK A01 T02650214  RH  073%=      5-min Rain = 0
KWA1 180804Z 15014KT 27/21 A2999 RMK A01 T02650214  RH  074%=      5-min Rain = 0
KWA1 180805Z 15014KT 27/21 A2999 RMK A01 T02650214  RH  074%=      5-min Rain = 0
KWA1 180806Z 16013KT 27/22 A2999 RMK A01 T02660215  RH  073%=      5-min Rain = 0
KWA1 180807Z 16014KT 27/22 A2999 RMK A01 T02660215  RH  074%=      5-min Rain = 0
KWA1 180808Z 15013KT 27/22 A2999 RMK A01 T02660215  RH  074%=      5-min Rain = 0
KWA1 180809Z 16015KT 27/22 A2999 RMK A01 T02650215  RH  074%=      5-min Rain = 0
KWA1 180810Z 15011KT 27/22 A2999 RMK A01 T02660215  RH  074%=      5-min Rain = 0
KWA1 180811Z 16013KT 27/22 A2999 RMK A01 T02650215  RH  074%=      5-min Rain = 0
KWA1 180812Z 15013KT 27/22 A2998 RMK A01 T02650215  RH  074%=      5-min Rain = 0
KWA1 180813Z 15013KT 27/22 A2998 RMK A01 T02650216  RH  074%=      5-min Rain = 0
KWA1 180814Z 16016KT 27/22 A2998 RMK A01 T02650216  RH  074%=      5-min Rain = 0
KWA1 180815Z 15015KT 27/22 A2998 RMK A01 T02650216  RH  074%=      5-min Rain = 0
KWA1 180816Z 15012KT 27/22 A2998 RMK A01 T02650216  RH  074%=      5-min Rain = 0
KWA1 180817Z 15011KT 27/22 A2998 RMK A01 T02650216  RH  074%=      5-min Rain = 0
KWA1 180818Z 15013KT 26/22 A2998 RMK A01 T02640215  RH  074%=      5-min Rain = 0
KWA1 180819Z 16012KT 26/22 A2999 RMK A01 T02640215  RH  075%=      5-min Rain = 0
KWA1 180820Z 16012KT 26/22 A2999 RMK A01 T02640216  RH  075%=      5-min Rain = 0
KWA1 180821Z 16012KT 26/22 A2999 RMK A01 T02640215  RH  075%=      5-min Rain = 0
KWA1 180822Z 16011KT 26/22 A2999 RMK A01 T02640216  RH  075%=      5-min Rain = 0
KWA1 180823Z 16012KT 26/22 A2999 RMK A01 T02630215  RH  075%=      5-min Rain = 0
KWA1 180824Z 16012KT 26/22 A2999 RMK A01 T02630216  RH  075%=      5-min Rain = 0
KWA1 180825Z 16011KT 26/22 A2999 RMK A01 T02630216  RH  075%=      5-min Rain = 0
KWA1 180826Z 16012KT 26/22 A2999 RMK A01 T02630216  RH  075%=      5-min Rain = 0
KWA1 180827Z 16013G18KT 26/22 A2999 RMK A01 T02630216  RH  075%=      5-min Rain = 0
KWA1 180828Z 16011KT 26/22 A2999 RMK A01 T02630216  RH  075%=      5-min Rain = 0
KWA1 180829Z 16012KT 26/22 A2999 RMK A01 T02630216  RH  075%=      5-min Rain = 0
KWA1 180830Z 16010KT 26/22 A2999 RMK A01 T02630216  RH  075%=      5-min Rain = 0
KWA1 180831Z 16011KT 26/22 A2999 RMK A01 T02630216  RH  075%=      5-min Rain = 0
KWA1 180832Z 16011KT 26/22 A2999 RMK A01 T02620216  RH  076%=      5-min Rain = 0
KWA1 180833Z 16010KT 26/22 A2999 RMK A01 T02620216  RH  076%=      5-min Rain = 0
KWA1 180834Z 16009KT 26/22 A2999 RMK A01 T02620216  RH  076%=      5-min Rain = 0
KWA1 180835Z 17010KT 26/22 A2999 RMK A01 T02620216  RH  076%=      5-min Rain = 0
KWA1 180836Z 16010KT 26/22 A2999 RMK A01 T02620216  RH  076%=      5-min Rain = 0
KWA1 180837Z 17010KT 26/22 A2999 RMK A01 T02610216  RH  076%=      5-min Rain = 0
KWA1 180838Z 17012KT 26/22 A2999 RMK A01 T02610216  RH  076%=      5-min Rain = 0
KWA1 180839Z 17012KT 26/22 A2999 RMK A01 T02620216  RH  076%=      5-min Rain = 0
KWA1 180840Z 17010KT 26/22 A2999 RMK A01 T02610216  RH  076%=      5-min Rain = 0
KWA1 180841Z 16011KT 26/22 A2999 RMK A01 T02620216  RH  076%=      5-min Rain = 0
KWA1 180842Z 16012KT 26/22 A2999 RMK A01 T02610216  RH  076%=      5-min Rain = 0
KWA1 180843Z 16012KT 26/22 A2999 RMK A01 T02610216  RH  076%=      5-min Rain = 0
KWA1 180844Z 17012KT 26/22 A2999 RMK A01 T02610215  RH  076%=      5-min Rain = 0
KWA1 180845Z 16011KT 26/22 A2999 RMK A01 T02610216  RH  076%=      5-min Rain = 0
KWA1 180846Z 17011KT 26/22 A2999 RMK A01 T02610216  RH  076%=      5-min Rain = 0
KWA1 180847Z 17011KT 26/22 A2999 RMK A01 T02610216  RH  076%=      5-min Rain = 0
KWA1 180848Z 17009KT 26/22 A2999 RMK A01 T02610215  RH  076%=      5-min Rain = 0
KWA1 180849Z 16010KT 26/22 A2999 RMK A01 T02600215  RH  076%=      5-min Rain = 0
KWA1 180850Z 16011KT 26/22 A2999 RMK A01 T02600215  RH  076%=      5-min Rain = 0
KWA1 180851Z 17012KT 26/22 A2999 RMK A01 T02600215  RH  076%=      5-min Rain = 0
KWA1 180852Z 16010KT 26/22 A2999 RMK A01 T02600215  RH  076%=      5-min Rain = 0
KWA1 180853Z 17011KT 26/22 A2999 RMK A01 T02600215  RH  076%=      5-min Rain = 0
KWA1 180854Z 17011KT 26/22 A2999 RMK A01 T02600215  RH  076%=      5-min Rain = 0
KWA1 180855Z 17011KT 26/22 A2999 RMK A01 T02600215  RH  076%=      5-min Rain = 0
KWA1 180856Z 16011KT 26/22 A2999 RMK A01 T02600215  RH  076%=      5-min Rain = 0
KWA1 180857Z 16012KT 26/22 A2999 RMK A01 T02600215  RH  076%=      5-min Rain = 0
KWA1 180858Z 17010KT 26/22 A2999 RMK A01 T02590215  RH  076%=      5-min Rain = 0
KWA1 180859Z 16009KT 26/22 A2999 RMK A01 T02590215  RH  076%=      5-min Rain = 0
KWA1 180900Z 16013KT 26/22 A2999 RMK A01 T02590215  RH  077%=      5-min Rain = 0
KWA1 180901Z 17012KT 26/22 A2999 RMK A01 T02590215  RH  077%=      5-min Rain = 0
KWA1 180902Z 16011KT 26/21 A2999 RMK A01 T02590214  RH  076%=      5-min Rain = 0
KWA1 180903Z 16011KT 26/22 A2999 RMK A01 T02590215  RH  077%=      5-min Rain = 0
KWA1 180904Z 17011KT 26/22 A2999 RMK A01 T02590215  RH  077%=      5-min Rain = 0
KWA1 180905Z 16011KT 26/21 A2999 RMK A01 T02590214  RH  077%=      5-min Rain = 0
KWA1 180906Z 16010KT 26/21 A2999 RMK A01 T02580214  RH  077%=      5-min Rain = 0
KWA1 180907Z 17012KT 26/22 A2999 RMK A01 T02590215  RH  077%=      5-min Rain = 0
KWA1 180908Z 16010G15KT 26/22 A2999 RMK A01 T02580215  RH  077%=      5-min Rain = 0
KWA1 180909Z 17012KT 26/22 A2999 RMK A01 T02580215  RH  077%=      5-min Rain = 0
KWA1 180910Z 17011KT 26/22 A2999 RMK A01 T02580215  RH  077%=      5-min Rain = 0
KWA1 180911Z 17011KT 26/22 A2999 RMK A01 T02580215  RH  077%=      5-min Rain = 0
KWA1 180912Z 16010KT 26/22 A2999 RMK A01 T02580215  RH  077%=      5-min Rain = 0
KWA1 180913Z 17010KT 26/22 A2999 RMK A01 T02580215  RH  077%=      5-min Rain = 0
KWA1 180914Z 17013KT 26/22 A2999 RMK A01 T02570215  RH  077%=      5-min Rain = 0
KWA1 180915Z 17014KT 26/22 A2999 RMK A01 T02570215  RH  077%=      5-min Rain = 0
KWA1 180916Z 17013KT 26/22 A2999 RMK A01 T02580215  RH  077%=      5-min Rain = 0
KWA1 180917Z 17012KT 26/22 A2999 RMK A01 T02580215  RH  077%=      5-min Rain = 0
KWA1 180918Z 17012KT 26/22 A2999 RMK A01 T02580215  RH  077%=      5-min Rain = 0
KWA1 180919Z 17012KT 26/22 A2999 RMK A01 T02570215  RH  077%=      5-min Rain = 0
KWA1 180920Z 17011KT 26/22 A2999 RMK A01 T02570215  RH  077%=      5-min Rain = 0
KWA1 180921Z 16008KT 26/22 A2999 RMK A01 T02570215  RH  077%=      5-min Rain = 0
KWA1 180922Z 17007KT 26/21 A2999 RMK A01 T02560214  RH  077%=      5-min Rain = 0
KWA1 180923Z 17008KT 26/21 A2999 RMK A01 T02560214  RH  078%=      5-min Rain = 0
KWA1 180924Z 17008KT 26/21 A2999 RMK A01 T02550214  RH  078%=      5-min Rain = 0
KWA1 180925Z 17008KT 26/21 A30 RMK A01 T02550214  RH  078%=      5-min Rain = 0
KWA1 180926Z 17008KT 26/21 A30 RMK A01 T02550214  RH  078%=      5-min Rain = 0
KWA1 180927Z 16009KT 26/21 A30 RMK A01 T02550214  RH  078%=      5-min Rain = 0
KWA1 180928Z 16011KT 26/21 A30 RMK A01 T02550214  RH  078%=      5-min Rain = 0
KWA1 180929Z 17008KT 25/21 A30 RMK A01 T02540214  RH  078%=      5-min Rain = 0
KWA1 180930Z 17012KT 26/22 A30 RMK A01 T02550215  RH  078%=      5-min Rain = 0
KWA1 180931Z 17012KT 26/21 A30 RMK A01 T02550214  RH  078%=      5-min Rain = 0
KWA1 180932Z 17013KT 26/21 A30 RMK A01 T02550214  RH  078%=      5-min Rain = 0
KWA1 180933Z 17011KT 26/21 A30 RMK A01 T02550214  RH  078%=      5-min Rain = 0
KWA1 180934Z 17011KT 26/21 A30 RMK A01 T02550214  RH  078%=      5-min Rain = 0
KWA1 180935Z 17012KT 26/21 A30 RMK A01 T02550214  RH  078%=      5-min Rain = 0
KWA1 180936Z 17010KT 26/21 A30 RMK A01 T02550214  RH  078%=      5-min Rain = 0
KWA1 180937Z 17010KT 26/21 A30 RMK A01 T02550214  RH  078%=      5-min Rain = 0
KWA1 180938Z 17012KT 25/21 A30 RMK A01 T02540214  RH  078%=      5-min Rain = 0
KWA1 180939Z 17013KT 25/21 A30 RMK A01 T02540214  RH  078%=      5-min Rain = 0
KWA1 180940Z 17011KT 25/21 A30 RMK A01 T02540214  RH  078%=      5-min Rain = 0
KWA1 180941Z 17011KT 26/21 A30 RMK A01 T02550214  RH  078%=      5-min Rain = 0
KWA1 180942Z 17010KT 26/21 A30 RMK A01 T02550214  RH  078%=      5-min Rain = 0
KWA1 180943Z 17011KT 25/21 A30 RMK A01 T02540214  RH  078%=      5-min Rain = 0
KWA1 180944Z 18011KT 25/21 A30 RMK A01 T02540214  RH  078%=      5-min Rain = 0
KWA1 180945Z 18012KT 25/21 A30 RMK A01 T02540214  RH  078%=      5-min Rain = 0
KWA1 180946Z 17010KT 25/21 A30 RMK A01 T02540213  RH  078%=      5-min Rain = 0
KWA1 180947Z 17011KT 25/21 A30 RMK A01 T02540214  RH  078%=      5-min Rain = 0
KWA1 180948Z 18012KT 25/21 A30 RMK A01 T02540214  RH  078%=      5-min Rain = 0
KWA1 180949Z 17011KT 25/21 A30 RMK A01 T02540214  RH  078%=      5-min Rain = 0
KWA1 180950Z 18009KT 25/21 A30 RMK A01 T02540214  RH  078%=      5-min Rain = 0
KWA1 180951Z 18009KT 25/21 A30 RMK A01 T02530214  RH  079%=      5-min Rain = 0
KWA1 180952Z 18011KT 25/21 A30 RMK A01 T02530213  RH  079%=      5-min Rain = 0
KWA1 180953Z 18011KT 25/21 A30 RMK A01 T02520213  RH  079%=      5-min Rain = 0
KWA1 180954Z 18010KT 25/21 A30 RMK A01 T02530213  RH  079%=      5-min Rain = 0
KWA1 180955Z 18010KT 25/21 A30 RMK A01 T02530214  RH  079%=      5-min Rain = 0
KWA1 180956Z 19011KT 25/21 A30 RMK A01 T02530214  RH  079%=      5-min Rain = 0
KWA1 180957Z 18009KT 25/21 A30 RMK A01 T02530213  RH  079%=      5-min Rain = 0
KWA1 180958Z 17010KT 25/21 A30 RMK A01 T02530213  RH  079%=      5-min Rain = 0
KWA1 180959Z 18009KT 25/21 A30 RMK A01 T02520213  RH  079%=      5-min Rain = 0
KWA1 181000Z 18010KT 25/21 A30 RMK A01 T02520213  RH  079%=      5-min Rain = 0
KWA1 181001Z 17009KT 25/21 A30 RMK A01 T02510213  RH  079%=      5-min Rain = 0
KWA1 181002Z 17010KT 25/21 A30 RMK A01 T02520213  RH  079%=      5-min Rain = 0
KWA1 181003Z 18010KT 25/21 A3001 RMK A01 T02510213  RH  079%=      5-min Rain = 0
KWA1 181004Z 17010KT 25/21 A3001 RMK A01 T02520213  RH  079%=      5-min Rain = 0
KWA1 181005Z 17011KT 25/21 A3001 RMK A01 T02510213  RH  079%=      5-min Rain = 0
KWA1 181006Z 18009KT 25/21 A3001 RMK A01 T02510213  RH  079%=      5-min Rain = 0
KWA1 181007Z 18009KT 25/21 A3001 RMK A01 T02510213  RH  079%=      5-min Rain = 0
KWA1 181008Z 18009KT 25/21 A3001 RMK A01 T02510213  RH  079%=      5-min Rain = 0
KWA1 181009Z 17009KT 25/21 A3001 RMK A01 T02510213  RH  079%=      5-min Rain = 0
KWA1 181010Z 18008KT 25/21 A3001 RMK A01 T02510213  RH  079%=      5-min Rain = 0
KWA1 181011Z 18009KT 25/21 A3001 RMK A01 T02510212  RH  079%=      5-min Rain = 0
KWA1 181012Z 18009KT 25/21 A3001 RMK A01 T02510213  RH  079%=      5-min Rain = 0
KWA1 181013Z 17011KT 25/21 A3001 RMK A01 T02500212  RH  079%=      5-min Rain = 0
KWA1 181014Z 18013KT 25/21 A3001 RMK A01 T02510213  RH  079%=      5-min Rain = 0
KWA1 181015Z 18009KT 25/21 A3001 RMK A01 T02510212  RH  079%=      5-min Rain = 0
KWA1 181016Z 18008KT 25/21 A3001 RMK A01 T02510212  RH  079%=      5-min Rain = 0
KWA1 181017Z 18009KT 25/21 A3001 RMK A01 T02510213  RH  079%=      5-min Rain = 0
KWA1 181018Z 18010KT 25/21 A3001 RMK A01 T02500213  RH  079%=      5-min Rain = 0
KWA1 181019Z 18010KT 25/21 A3001 RMK A01 T02510213  RH  079%=      5-min Rain = 0
KWA1 181020Z 18011KT 25/21 A3001 RMK A01 T02500212  RH  080%=      5-min Rain = 0
KWA1 181021Z 18010KT 25/21 A3001 RMK A01 T02500212  RH  079%=      5-min Rain = 0
KWA1 181022Z 18009KT 25/21 A3001 RMK A01 T02500212  RH  079%=      5-min Rain = 0
KWA1 181023Z 18009KT 25/21 A3001 RMK A01 T02500212  RH  080%=      5-min Rain = 0
KWA1 181024Z 18009KT 25/21 A3001 RMK A01 T02500212  RH  080%=      5-min Rain = 0
KWA1 181025Z 17009KT 25/21 A3001 RMK A01 T02500212  RH  080%=      5-min Rain = 0
KWA1 181026Z 18010KT 25/21 A3001 RMK A01 T02500212  RH  080%=      5-min Rain = 0
KWA1 181027Z 17009KT 25/21 A3001 RMK A01 T02490212  RH  080%=      5-min Rain = 0
KWA1 181028Z 18015KT 25/21 A3001 RMK A01 T02500212  RH  079%=      5-min Rain = 0
KWA1 181029Z 19011KT 25/21 A3001 RMK A01 T02510212  RH  079%=      5-min Rain = 0
KWA1 181030Z 18009KT 25/21 A3001 RMK A01 T02510212  RH  079%=      5-min Rain = 0
KWA1 181031Z 17009KT 25/21 A3001 RMK A01 T02510212  RH  079%=      5-min Rain = 0
KWA1 181032Z 17008KT 25/21 A3001 RMK A01 T02500212  RH  079%=      5-min Rain = 0
KWA1 181033Z 17009KT 25/21 A3001 RMK A01 T02500212  RH  079%=      5-min Rain = 0
KWA1 181034Z 18011KT 25/21 A3001 RMK A01 T02490211  RH  080%=      5-min Rain = 0
KWA1 181035Z 17011KT 25/21 A3001 RMK A01 T02490211  RH  080%=      5-min Rain = 0
KWA1 181036Z 17011KT 25/21 A3001 RMK A01 T02490211  RH  079%=      5-min Rain = 0
KWA1 181037Z 17011KT 25/21 A3001 RMK A01 T02490211  RH  079%=      5-min Rain = 0
KWA1 181038Z 17012KT 25/21 A3001 RMK A01 T02490211  RH  079%=      5-min Rain = 0
KWA1 181039Z 17011KT 25/21 A3001 RMK A01 T02490211  RH  079%=      5-min Rain = 0
KWA1 181040Z 17011KT 25/21 A3001 RMK A01 T02490211  RH  079%=      5-min Rain = 0
KWA1 181041Z 17010KT 25/21 A3001 RMK A01 T02490211  RH  080%=      5-min Rain = 0
KWA1 181042Z 17009KT 25/21 A3001 RMK A01 T02490211  RH  080%=      5-min Rain = 0
KWA1 181043Z 16014KT 25/21 A3001 RMK A01 T02480211  RH  080%=      5-min Rain = 0
KWA1 181044Z 17011KT 25/21 A3001 RMK A01 T02480211  RH  080%=      5-min Rain = 0
KWA1 181045Z 17010KT 25/21 A3001 RMK A01 T02480211  RH  080%=      5-min Rain = 0
KWA1 181046Z 16011KT 25/21 A3001 RMK A01 T02480211  RH  080%=      5-min Rain = 0
KWA1 181047Z 16011KT 25/21 A3001 RMK A01 T02480211  RH  080%=      5-min Rain = 0
KWA1 181048Z 16011KT 25/21 A3001 RMK A01 T02480212  RH  080%=      5-min Rain = 0
KWA1 181049Z 17011KT 25/21 A3001 RMK A01 T02480211  RH  080%=      5-min Rain = 0
KWA1 181050Z 17012KT 25/21 A3001 RMK A01 T02480211  RH  080%=      5-min Rain = 0
KWA1 181051Z 17012KT 25/21 A3001 RMK A01 T02480211  RH  080%=      5-min Rain = 0
KWA1 181052Z 17011KT 25/21 A3001 RMK A01 T02480211  RH  080%=      5-min Rain = 0
KWA1 181053Z 17009KT 25/21 A3001 RMK A01 T02480211  RH  080%=      5-min Rain = 0
KWA1 181054Z 17008KT 25/21 A3001 RMK A01 T02470211  RH  080%=      5-min Rain = 0
KWA1 181055Z 17008KT 25/21 A3001 RMK A01 T02470211  RH  080%=      5-min Rain = 0
KWA1 181056Z 16008KT 25/21 A3002 RMK A01 T02470211  RH  080%=      5-min Rain = 0
KWA1 181057Z 17008KT 25/21 A3002 RMK A01 T02470211  RH  080%=      5-min Rain = 0
KWA1 181058Z 17010KT 25/21 A3002 RMK A01 T02460211  RH  080%=      5-min Rain = 0
KWA1 181059Z 17010KT 25/21 A3002 RMK A01 T02460211  RH  081%=      5-min Rain = 0
KWA1 181100Z 18008KT 25/21 A3002 RMK A01 T02460211  RH  080%=      5-min Rain = 0
KWA1 181101Z 18009KT 25/21 A3001 RMK A01 T02460211  RH  081%=      5-min Rain = 0
KWA1 181102Z 17009KT 25/21 A3002 RMK A01 T02460211  RH  081%=      5-min Rain = 0
KWA1 181103Z 17010G16KT 25/21 A3001 RMK A01 T02460211  RH  081%=      5-min Rain = 0
KWA1 181104Z 17012KT 25/21 A3001 RMK A01 T02460210  RH  081%=      5-min Rain = 0
KWA1 181105Z 17011KT 25/21 A3001 RMK A01 T02460210  RH  080%=      5-min Rain = 0
KWA1 181106Z 17012KT 25/21 A3001 RMK A01 T02460210  RH  080%=      5-min Rain = 0
KWA1 181107Z 17009KT 25/21 A3001 RMK A01 T02460210  RH  080%=      5-min Rain = 0
KWA1 181108Z 17010KT 25/21 A3001 RMK A01 T02470211  RH  080%=      5-min Rain = 0
KWA1 181109Z 17010KT 25/21 A3002 RMK A01 T02460211  RH  080%=      5-min Rain = 0
KWA1 181110Z 18009KT 25/21 A3002 RMK A01 T02460211  RH  081%=      5-min Rain = 0
KWA1 181111Z 18009KT 25/21 A3002 RMK A01 T02460210  RH  080%=      5-min Rain = 0
KWA1 181112Z 18007KT 25/21 A3002 RMK A01 T02460210  RH  080%=      5-min Rain = 0
KWA1 181113Z 18008KT 25/21 A3002 RMK A01 T02460210  RH  080%=      5-min Rain = 0
KWA1 181114Z 18009KT 25/21 A3002 RMK A01 T02460210  RH  081%=      5-min Rain = 0
KWA1 181115Z 18010KT 25/21 A3002 RMK A01 T02450210  RH  081%=      5-min Rain = 0
KWA1 181116Z 18012KT 25/21 A3002 RMK A01 T02450210  RH  081%=      5-min Rain = 0
KWA1 181117Z 17013KT 25/21 A3002 RMK A01 T02460210  RH  080%=      5-min Rain = 0
KWA1 181118Z 18007KT 25/21 A3002 RMK A01 T02460210  RH  080%=      5-min Rain = 0
KWA1 181119Z 17008KT 25/21 A3002 RMK A01 T02460210  RH  080%=      5-min Rain = 0
KWA1 181120Z 18009KT 25/21 A3002 RMK A01 T02450210  RH  080%=      5-min Rain = 0
KWA1 181121Z 17011KT 25/21 A3002 RMK A01 T02450209  RH  081%=      5-min Rain = 0
KWA1 181122Z 17012KT 25/21 A3002 RMK A01 T02450209  RH  081%=      5-min Rain = 0
KWA1 181123Z 18012KT 25/21 A3002 RMK A01 T02450209  RH  080%=      5-min Rain = 0
KWA1 181124Z 17010KT 25/21 A3002 RMK A01 T02450209  RH  080%=      5-min Rain = 0
KWA1 181125Z 17011KT 25/21 A3002 RMK A01 T02450209  RH  080%=      5-min Rain = 0
KWA1 181126Z 18013KT 25/21 A3002 RMK A01 T02450209  RH  080%=      5-min Rain = 0
KWA1 181127Z 17011KT 25/21 A3002 RMK A01 T02450209  RH  080%=      5-min Rain = 0
KWA1 181128Z 17010KT 25/21 A3002 RMK A01 T02460209  RH  080%=      5-min Rain = 0
KWA1 181129Z 17012KT 25/21 A3002 RMK A01 T02450209  RH  080%=      5-min Rain = 0
KWA1 181130Z 18011KT 25/21 A3002 RMK A01 T02450209  RH  080%=      5-min Rain = 0
KWA1 181131Z 17010KT 25/21 A3002 RMK A01 T02450208  RH  080%=      5-min Rain = 0
KWA1 181132Z 17011KT 25/21 A3002 RMK A01 T02450209  RH  080%=      5-min Rain = 0
KWA1 181133Z 17010KT 25/21 A3002 RMK A01 T02450209  RH  080%=      5-min Rain = 0
KWA1 181134Z 17012KT 25/21 A3002 RMK A01 T02450209  RH  080%=      5-min Rain = 0
KWA1 181135Z 18013KT 25/21 A3002 RMK A01 T02450208  RH  080%=      5-min Rain = 0
KWA1 181136Z 18011KT 25/21 A3002 RMK A01 T02450208  RH  080%=      5-min Rain = 0
KWA1 181137Z 18009KT 25/21 A3002 RMK A01 T02460208  RH  080%=      5-min Rain = 0
KWA1 181138Z 18010KT 25/21 A3002 RMK A01 T02450208  RH  080%=      5-min Rain = 0
KWA1 181139Z 17009KT 25/21 A3002 RMK A01 T02450208  RH  080%=      5-min Rain = 0
KWA1 181140Z 17010KT 24/21 A3002 RMK A01 T02440207  RH  080%=      5-min Rain = 0
KWA1 181141Z 17013KT 24/21 A3002 RMK A01 T02440208  RH  080%=      5-min Rain = 0
KWA1 181142Z 18011KT 24/21 A3002 RMK A01 T02440208  RH  080%=      5-min Rain = 0
KWA1 181143Z 17010KT 24/21 A3002 RMK A01 T02440207  RH  080%=      5-min Rain = 0
KWA1 181144Z 17010KT 24/21 A3002 RMK A01 T02440207  RH  080%=      5-min Rain = 0
KWA1 181145Z 17010KT 24/21 A3002 RMK A01 T02440207  RH  080%=      5-min Rain = 0
KWA1 181146Z 17009KT 24/21 A3002 RMK A01 T02440207  RH  080%=      5-min Rain = 0
KWA1 181147Z 17010KT 24/21 A3002 RMK A01 T02430207  RH  080%=      5-min Rain = 0
KWA1 181148Z 17013KT 24/21 A3002 RMK A01 T02430207  RH  080%=      5-min Rain = 0
KWA1 181149Z 17013KT 24/21 A3002 RMK A01 T02430207  RH  080%=      5-min Rain = 0
KWA1 181150Z 17011KT 24/21 A3002 RMK A01 T02440207  RH  080%=      5-min Rain = 0
KWA1 181151Z 17010KT 24/21 A3002 RMK A01 T02440207  RH  080%=      5-min Rain = 0
KWA1 181152Z 17011KT 24/21 A3002 RMK A01 T02440207  RH  080%=      5-min Rain = 0
KWA1 181153Z 18013KT 24/21 A3002 RMK A01 T02440207  RH  080%=      5-min Rain = 0
KWA1 181154Z 17013KT 24/21 A3002 RMK A01 T02440206  RH  080%=      5-min Rain = 0
KWA1 181155Z 17013KT 24/21 A3002 RMK A01 T02440206  RH  079%=      5-min Rain = 0
KWA1 181156Z 17013KT 24/21 A3002 RMK A01 T02440206  RH  079%=      5-min Rain = 0
KWA1 181157Z 17012KT 24/21 A3002 RMK A01 T02440206  RH  079%=      5-min Rain = 0
KWA1 181158Z 17012KT 24/21 A3002 RMK A01 T02440206  RH  079%=      5-min Rain = 0
KWA1 181159Z 17012KT 24/21 A3002 RMK A01 T02440206  RH  079%=      5-min Rain = 0
KWA1 181200Z 17011KT 24/21 A3002 RMK A01 T02440206  RH  079%=      5-min Rain = 0
KWA1 181201Z 17010KT 24/21 A3002 RMK A01 T02440206  RH  079%=      5-min Rain = 0
KWA1 181202Z 17011G16KT 24/21 A3002 RMK A01 T02440207  RH  080%=      5-min Rain = 0
KWA1 181203Z 17013KT 24/21 A3002 RMK A01 T02440206  RH  080%=      5-min Rain = 0
KWA1 181204Z 17013KT 24/21 A3002 RMK A01 T02440206  RH  079%=      5-min Rain = 0
KWA1 181205Z 17011G16KT 24/21 A3002 RMK A01 T02440206  RH  079%=      5-min Rain = 0
KWA1 181206Z 17011KT 24/21 A3002 RMK A01 T02440206  RH  079%=      5-min Rain = 0
KWA1 181207Z 17013KT 24/21 A3002 RMK A01 T02440206  RH  079%=      5-min Rain = 0
KWA1 181208Z 17010KT 24/21 A3002 RMK A01 T02440206  RH  079%=      5-min Rain = 0
KWA1 181209Z 17010KT 24/21 A3002 RMK A01 T02440206  RH  079%=      5-min Rain = 0
KWA1 181210Z 17010KT 24/21 A3002 RMK A01 T02440206  RH  079%=      5-min Rain = 0
KWA1 181211Z 17011KT 24/21 A3002 RMK A01 T02440206  RH  079%=      5-min Rain = 0
KWA1 181212Z 17009KT 24/21 A3002 RMK A01 T02440206  RH  079%=      5-min Rain = 0
KWA1 181213Z 17009KT 24/21 A3002 RMK A01 T02440206  RH  079%=      5-min Rain = 0
KWA1 181214Z 17008KT 24/21 A3002 RMK A01 T02440206  RH  079%=      5-min Rain = 0
KWA1 181215Z 17009KT 24/21 A3002 RMK A01 T02440206  RH  079%=      5-min Rain = 0
KWA1 181216Z 17009KT 24/21 A3002 RMK A01 T02440206  RH  079%=      5-min Rain = 0
KWA1 181217Z 17011KT 24/21 A3002 RMK A01 T02440205  RH  079%=      5-min Rain = 0
KWA1 181218Z 17011KT 24/21 A3002 RMK A01 T02440205  RH  079%=      5-min Rain = 0
KWA1 181219Z 17009KT 24/21 A3002 RMK A01 T02440205  RH  079%=      5-min Rain = 0
KWA1 181220Z 16009KT 25/21 A3002 RMK A01 T02450206  RH  079%=      5-min Rain = 0
KWA1 181221Z 17010KT 25/21 A3002 RMK A01 T02450206  RH  079%=      5-min Rain = 0
KWA1 181222Z 16011KT 25/21 A3002 RMK A01 T02450206  RH  079%=      5-min Rain = 0
KWA1 181223Z 16010KT 24/21 A3002 RMK A01 T02440205  RH  079%=      5-min Rain = 0
KWA1 181224Z 17009KT 25/21 A3002 RMK A01 T02450205  RH  079%=      5-min Rain = 0
KWA1 181225Z 17010KT 25/21 A3002 RMK A01 T02450205  RH  078%=      5-min Rain = 0
KWA1 181226Z 17012KT 25/21 A3002 RMK A01 T02450205  RH  078%=      5-min Rain = 0
KWA1 181227Z 17010KT 25/21 A3002 RMK A01 T02450205  RH  078%=      5-min Rain = 0
KWA1 181228Z 17010KT 25/21 A3002 RMK A01 T02450205  RH  078%=      5-min Rain = 0
KWA1 181229Z 17010KT 25/21 A3002 RMK A01 T02450205  RH  078%=      5-min Rain = 0
KWA1 181230Z 17011KT 25/21 A3002 RMK A01 T02460205  RH  078%=      5-min Rain = 0
KWA1 181231Z 17010KT 25/21 A3002 RMK A01 T02460205  RH  078%=      5-min Rain = 0
KWA1 181232Z 17011KT 25/21 A3002 RMK A01 T02460205  RH  078%=      5-min Rain = 0
KWA1 181233Z 17010KT 25/21 A3002 RMK A01 T02460205  RH  078%=      5-min Rain = 0
KWA1 181234Z 17011KT 25/21 A3002 RMK A01 T02460205  RH  078%=      5-min Rain = 0
KWA1 181235Z 17011KT 25/21 A3002 RMK A01 T02460205  RH  078%=      5-min Rain = 0
KWA1 181236Z 17011KT 25/21 A3002 RMK A01 T02460205  RH  078%=      5-min Rain = 0
KWA1 181237Z 17009KT 25/21 A3002 RMK A01 T02470205  RH  078%=      5-min Rain = 0
KWA1 181238Z 17009KT 25/21 A3002 RMK A01 T02470205  RH  078%=      5-min Rain = 0
KWA1 181239Z 17011KT 25/21 A3002 RMK A01 T02470205  RH  077%=      5-min Rain = 0
KWA1 181240Z 18011KT 25/21 A3002 RMK A01 T02480205  RH  077%=      5-min Rain = 0
KWA1 181241Z 17011KT 25/21 A3002 RMK A01 T02480205  RH  077%=      5-min Rain = 0
KWA1 181242Z 18013KT 25/21 A3003 RMK A01 T02480205  RH  077%=      5-min Rain = 0
KWA1 181243Z 18012KT 25/20 A3002 RMK A01 T02480204  RH  077%=      5-min Rain = 0
KWA1 181244Z 18010KT 25/21 A3003 RMK A01 T02480205  RH  077%=      5-min Rain = 0
KWA1 181245Z 18010KT 25/21 A3003 RMK A01 T02480206  RH  077%=      5-min Rain = 0
KWA1 181246Z 17009KT 25/21 A3003 RMK A01 T02480205  RH  077%=      5-min Rain = 0
KWA1 181247Z 17009KT 25/21 A3003 RMK A01 T02490205  RH  077%=      5-min Rain = 0
KWA1 181248Z 18013KT 25/21 A3003 RMK A01 T02490206  RH  077%=      5-min Rain = 0
KWA1 181249Z 19010KT 25/21 A3003 RMK A01 T02490205  RH  076%=      5-min Rain = 0
KWA1 181250Z 19011KT 25/21 A3003 RMK A01 T02490205  RH  077%=      5-min Rain = 0
KWA1 181251Z 19010KT 25/21 A3003 RMK A01 T02500205  RH  076%=      5-min Rain = 0
KWA1 181252Z 19009KT 25/21 A3003 RMK A01 T02500206  RH  077%=      5-min Rain = 0
KWA1 181253Z 19010KT 25/21 A3003 RMK A01 T02500206  RH  076%=      5-min Rain = 0
KWA1 181254Z 18011KT 25/21 A3004 RMK A01 T02500206  RH  076%=      5-min Rain = 0
KWA1 181255Z 19011KT 25/21 A3004 RMK A01 T02510206  RH  076%=      5-min Rain = 0
KWA1 181256Z 18010KT 25/21 A3004 RMK A01 T02510206  RH  076%=      5-min Rain = 0
KWA1 181257Z 18010KT 25/21 A3003 RMK A01 T02510206  RH  076%=      5-min Rain = 0
KWA1 181258Z 18010KT 25/21 A3004 RMK A01 T02510205  RH  076%=      5-min Rain = 0
KWA1 181259Z 18009KT 25/21 A3004 RMK A01 T02520206  RH  076%=      5-min Rain = 0
KWA1 181300Z 18010KT 25/21 A3004 RMK A01 T02520206  RH  076%=      5-min Rain = 0
KWA1 181301Z 18011KT 25/21 A3004 RMK A01 T02520206  RH  076%=      5-min Rain = 0
KWA1 181302Z 19010KT 25/21 A3004 RMK A01 T02530207  RH  076%=      5-min Rain = 0
KWA1 181303Z 18010KT 25/21 A3004 RMK A01 T02530207  RH  076%=      5-min Rain = 0
KWA1 181304Z 19008KT 25/21 A3004 RMK A01 T02530207  RH  075%=      5-min Rain = 0
KWA1 181305Z 18011KT 25/21 A3004 RMK A01 T02540207  RH  075%=      5-min Rain = 0
KWA1 181306Z 18013KT 25/21 A3004 RMK A01 T02540206  RH  075%=      5-min Rain = 0
KWA1 181307Z 17014KT 25/21 A3004 RMK A01 T02540206  RH  075%=      5-min Rain = 0
KWA1 181308Z 18014KT 25/21 A3004 RMK A01 T02540206  RH  075%=      5-min Rain = 0
KWA1 181309Z 18012KT 25/21 A3004 RMK A01 T02540206  RH  075%=      5-min Rain = 0
KWA1 181310Z 18010KT 25/21 A3004 RMK A01 T02540207  RH  075%=      5-min Rain = 0
KWA1 181311Z 18010KT 26/21 A3004 RMK A01 T02550207  RH  075%=      5-min Rain = 0
KWA1 181312Z 17009KT 26/21 A3004 RMK A01 T02550207  RH  075%=      5-min Rain = 0
KWA1 181313Z 18012KT 26/21 A3004 RMK A01 T02550208  RH  075%=      5-min Rain = 0
KWA1 181314Z 18010KT 26/21 A3004 RMK A01 T02560207  RH  075%=      5-min Rain = 0
KWA1 181315Z 18011KT 26/21 A3004 RMK A01 T02560208  RH  075%=      5-min Rain = 0
KWA1 181316Z 18014KT 26/21 A3004 RMK A01 T02570208  RH  074%=      5-min Rain = 0
KWA1 181317Z 19012KT 26/21 A3004 RMK A01 T02560207  RH  074%=      5-min Rain = 0
KWA1 181318Z 18012KT 26/21 A3004 RMK A01 T02560207  RH  074%=      5-min Rain = 0
KWA1 181319Z 18011KT 26/21 A3004 RMK A01 T02570208  RH  075%=      5-min Rain = 0
KWA1 181320Z 17013KT 26/21 A3004 RMK A01 T02570208  RH  074%=      5-min Rain = 0
KWA1 181321Z 17014KT 26/21 A3004 RMK A01 T02570207  RH  074%=      5-min Rain = 0
KWA1 181322Z 18014KT 26/21 A3004 RMK A01 T02570207  RH  074%=      5-min Rain = 0
KWA1 181323Z 19013KT 26/21 A3004 RMK A01 T02570208  RH  074%=      5-min Rain = 0
KWA1 181324Z 18013KT 26/21 A3004 RMK A01 T02570208  RH  074%=      5-min Rain = 0
KWA1 181325Z 17015KT 26/21 A3004 RMK A01 T02570208  RH  074%=      5-min Rain = 0
KWA1 181326Z 18015KT 26/21 A3004 RMK A01 T02570208  RH  074%=      5-min Rain = 0
KWA1 181327Z 17014KT 26/21 A3004 RMK A01 T02570208  RH  074%=      5-min Rain = 0
KWA1 181328Z 18018KT 26/21 A3004 RMK A01 T02570207  RH  074%=      5-min Rain = 0
KWA1 181329Z 18017KT 26/21 A3004 RMK A01 T02570207  RH  074%=      5-min Rain = 0
KWA1 181330Z 18015KT 26/21 A3004 RMK A01 T02570207  RH  074%=      5-min Rain = 0
KWA1 181331Z 18016KT 26/21 A3004 RMK A01 T02580207  RH  074%=      5-min Rain = 0
KWA1 181332Z 19014G19KT 26/21 A3004 RMK A01 T02580208  RH  074%=      5-min Rain = 0
KWA1 181333Z 18011KT 26/21 A3004 RMK A01 T02580209  RH  074%=      5-min Rain = 0
KWA1 181334Z 18013KT 26/21 A3004 RMK A01 T02590209  RH  074%=      5-min Rain = 0
KWA1 181335Z 19012KT 26/21 A3004 RMK A01 T02590209  RH  074%=      5-min Rain = 0
KWA1 181336Z 19014KT 26/21 A3004 RMK A01 T02590208  RH  073%=      5-min Rain = 0
KWA1 181337Z 18011KT 26/21 A3004 RMK A01 T02600209  RH  074%=      5-min Rain = 0
KWA1 181338Z 18012KT 26/21 A3004 RMK A01 T02600208  RH  073%=      5-min Rain = 0
KWA1 181339Z 18013KT 26/21 A3004 RMK A01 T02610209  RH  073%=      5-min Rain = 0
KWA1 181340Z 18013KT 26/21 A3004 RMK A01 T02610208  RH  073%=      5-min Rain = 0
KWA1 181341Z 19015KT 26/21 A3004 RMK A01 T02610208  RH  073%=      5-min Rain = 0
KWA1 181342Z 18016KT 26/21 A3004 RMK A01 T02610208  RH  073%=      5-min Rain = 0
KWA1 181343Z 19016KT 26/21 A3004 RMK A01 T02600208  RH  073%=      5-min Rain = 0
KWA1 181344Z 19018KT 26/21 A3004 RMK A01 T02600208  RH  073%=      5-min Rain = 0
KWA1 181345Z 19016KT 26/21 A3004 RMK A01 T02600208  RH  073%=      5-min Rain = 0
KWA1 181346Z 19015KT 26/21 A3004 RMK A01 T02600208  RH  073%=      5-min Rain = 0
KWA1 181347Z 19016KT 26/21 A3004 RMK A01 T02600208  RH  073%=      5-min Rain = 0
KWA1 181348Z 20016KT 26/21 A3004 RMK A01 T02600208  RH  073%=      5-min Rain = 0
KWA1 181349Z 18013KT 26/21 A3004 RMK A01 T02600208  RH  073%=      5-min Rain = 0
KWA1 181350Z 19014KT 26/21 A3004 RMK A01 T02610209  RH  073%=      5-min Rain = 0
KWA1 181351Z 20015KT 26/21 A3004 RMK A01 T02630209  RH  072%=      5-min Rain = 0
KWA1 181352Z 19013KT 26/21 A3004 RMK A01 T02620209  RH  072%=      5-min Rain = 0
KWA1 181353Z 19012KT 26/21 A3004 RMK A01 T02620208  RH  072%=      5-min Rain = 0
KWA1 181354Z 18017KT 26/21 A3004 RMK A01 T02620209  RH  073%=      5-min Rain = 0
KWA1 181355Z 19017KT 26/21 A3004 RMK A01 T02630208  RH  072%=      5-min Rain = 0
KWA1 181356Z 19015KT 26/21 A3004 RMK A01 T02620208  RH  072%=      5-min Rain = 0
KWA1 181357Z 19016KT 26/21 A3004 RMK A01 T02610208  RH  073%=      5-min Rain = 0
KWA1 181358Z 19014G19KT 26/21 A3004 RMK A01 T02610208  RH  073%=      5-min Rain = 0
KWA1 181359Z 18014KT 26/21 A3004 RMK A01 T02630209  RH  072%=      5-min Rain = 0
KWA1 181400Z 18014KT 26/21 A3004 RMK A01 T02640210  RH  072%=      5-min Rain = 0
KWA1 181401Z 18017KT 27/21 A3004 RMK A01 T02660210  RH  071%=      5-min Rain = 0
KWA1 181402Z 19017KT 27/21 A3004 RMK A01 T02660209  RH  071%=      5-min Rain = 0
KWA1 181403Z 18017KT 27/21 A3004 RMK A01 T02650209  RH  071%=      5-min Rain = 0
KWA1 181404Z 18016KT 27/21 A3004 RMK A01 T02650209  RH  071%=      5-min Rain = 0
KWA1 181405Z 18016KT 27/21 A3004 RMK A01 T02660209  RH  071%=      5-min Rain = 0
KWA1 181406Z 19015G20KT 27/21 A3004 RMK A01 T02660209  RH  071%=      5-min Rain = 0
KWA1 181407Z 19016KT 27/21 A3004 RMK A01 T02660209  RH  071%=      5-min Rain = 0
KWA1 181408Z 19019KT 27/21 A3004 RMK A01 T02670209  RH  070%=      5-min Rain = 0
KWA1 181409Z 19018G23KT 27/21 A3004 RMK A01 T02660208  RH  071%=      5-min Rain = 0
KWA1 181410Z 18017KT 27/21 A3004 RMK A01 T02660209  RH  071%=      5-min Rain = 0
KWA1 181411Z 19017KT 27/21 A3004 RMK A01 T02680209  RH  070%=      5-min Rain = 0
KWA1 181412Z 19013KT 27/21 A3004 RMK A01 T02670210  RH  071%=      5-min Rain = 0
KWA1 181413Z 20016KT 27/21 A3004 RMK A01 T02690210  RH  070%=      5-min Rain = 0
KWA1 181414Z 19017KT 27/21 A3003 RMK A01 T02690209  RH  070%=      5-min Rain = 0
KWA1 181415Z 20014G19KT 27/21 A3004 RMK A01 T02680209  RH  070%=      5-min Rain = 0
KWA1 181416Z 20014KT 27/21 A3004 RMK A01 T02680211  RH  071%=      5-min Rain = 0
KWA1 181417Z 19015KT 27/21 A3004 RMK A01 T02700211  RH  070%=      5-min Rain = 0
KWA1 181418Z 18015KT 27/21 A3004 RMK A01 T02700210  RH  070%=      5-min Rain = 0
KWA1 181419Z 19015KT 27/21 A3004 RMK A01 T02700210  RH  070%=      5-min Rain = 0
KWA1 181420Z 20013KT 27/21 A3004 RMK A01 T02710211  RH  070%=      5-min Rain = 0
KWA1 181421Z 19014KT 27/21 A3004 RMK A01 T02720211  RH  069%=      5-min Rain = 0
KWA1 181422Z 19014KT 27/21 A3004 RMK A01 T02720210  RH  069%=      5-min Rain = 0
KWA1 181423Z 18014KT 27/21 A3004 RMK A01 T02700210  RH  069%=      5-min Rain = 0
KWA1 181424Z 19011KT 27/21 A3004 RMK A01 T02700211  RH  070%=      5-min Rain = 0
KWA1 181425Z 19010KT 27/21 A3004 RMK A01 T02720212  RH  070%=      5-min Rain = 0
KWA1 181426Z 20012KT 27/21 A3004 RMK A01 T02740213  RH  069%=      5-min Rain = 0
KWA1 181427Z 19016G22KT 28/21 A3004 RMK A01 T02750211  RH  068%=      5-min Rain = 0
KWA1 181428Z 19012KT 28/21 A3004 RMK A01 T02750212  RH  069%=      5-min Rain = 0
KWA1 181429Z 20013KT 28/21 A3003 RMK A01 T02760212  RH  068%=      5-min Rain = 0
KWA1 181430Z 20016KT 28/21 A3003 RMK A01 T02750210  RH  068%=      5-min Rain = 0
KWA1 181431Z 19015KT 27/21 A3003 RMK A01 T02730210  RH  068%=      5-min Rain = 0
KWA1 181432Z 19013G18KT 27/21 A3003 RMK A01 T02730211  RH  069%=      5-min Rain = 0
KWA1 181433Z 18012KT 27/21 A3003 RMK A01 T02740211  RH  068%=      5-min Rain = 0
KWA1 181434Z 17014KT 27/21 A3003 RMK A01 T02740210  RH  068%=      5-min Rain = 0
KWA1 181435Z 18014KT 28/21 A3003 RMK A01 T02750211  RH  068%=      5-min Rain = 0
KWA1 181436Z 19013KT 28/21 A3003 RMK A01 T02750210  RH  068%=      5-min Rain = 0
KWA1 181437Z 20012KT 28/21 A3004 RMK A01 T02760212  RH  068%=      5-min Rain = 0
KWA1 181438Z 20013KT 28/21 A3004 RMK A01 T02770212  RH  068%=      5-min Rain = 0
KWA1 181439Z 19013KT 28/21 A3004 RMK A01 T02770211  RH  067%=      5-min Rain = 0
KWA1 181440Z 19014KT 28/21 A3004 RMK A01 T02760211  RH  068%=      5-min Rain = 0
KWA1 181441Z 19015KT 28/21 A3004 RMK A01 T02760211  RH  068%=      5-min Rain = 0
KWA1 181442Z 18012KT 28/21 A3004 RMK A01 T02760210  RH  067%=      5-min Rain = 0
KWA1 181443Z 19013KT 28/21 A3004 RMK A01 T02770212  RH  068%=      5-min Rain = 0
KWA1 181444Z 19014KT 28/21 A3004 RMK A01 T02770211  RH  067%=      5-min Rain = 0
KWA1 181445Z 20015KT 28/21 A3004 RMK A01 T02770211  RH  067%=      5-min Rain = 0
KWA1 181446Z 21013KT 28/21 A3004 RMK A01 T02780212  RH  067%=      5-min Rain = 0
KWA1 181447Z 20015KT 28/21 A3004 RMK A01 T02800212  RH  067%=      5-min Rain = 0
KWA1 181448Z 20015KT 28/21 A3004 RMK A01 T02800211  RH  066%=      5-min Rain = 0
KWA1 181449Z 21015KT 28/21 A3004 RMK A01 T02790211  RH  066%=      5-min Rain = 0
KWA1 181450Z 20013KT 28/21 A3004 RMK A01 T02790212  RH  067%=      5-min Rain = 0
KWA1 181451Z 20014KT 28/21 A3004 RMK A01 T02800212  RH  067%=      5-min Rain = 0
KWA1 181452Z 20014KT 28/21 A3004 RMK A01 T02810212  RH  066%=      5-min Rain = 0
KWA1 181453Z 20014KT 28/21 A3004 RMK A01 T02800212  RH  066%=      5-min Rain = 0
KWA1 181454Z 20012KT 28/21 A3003 RMK A01 T02800212  RH  067%=      5-min Rain = 0
KWA1 181455Z 19012KT 28/21 A3003 RMK A01 T02800211  RH  066%=      5-min Rain = 0
KWA1 181456Z 17014KT 28/21 A3003 RMK A01 T02800212  RH  066%=      5-min Rain = 0
KWA1 181457Z 18016KT 28/21 A3003 RMK A01 T02820212  RH  066%=      5-min Rain = 0
KWA1 181458Z 18018KT 28/21 A3003 RMK A01 T02840211  RH  065%=      5-min Rain = 0
KWA1 181459Z 18014KT 28/21 A3003 RMK A01 T02840213  RH  065%=      5-min Rain = 0
KWA1 181500Z 17013KT 29/21 A3003 RMK A01 T02860213  RH  065%=      5-min Rain = 0
KWA1 181501Z 18013G18KT 29/21 A3003 RMK A01 T02860213  RH  064%=      5-min Rain = 0
KWA1 181502Z 19015KT 29/21 A3003 RMK A01 T02860212  RH  064%=      5-min Rain = 0
KWA1 181503Z 18013KT 29/21 A3003 RMK A01 T02860212  RH  064%=      5-min Rain = 0
KWA1 181504Z 18014KT 29/21 A3003 RMK A01 T02850212  RH  065%=      5-min Rain = 0
KWA1 181505Z 19016KT 29/21 A3003 RMK A01 T02860212  RH  064%=      5-min Rain = 0
KWA1 181506Z 18015KT 29/21 A3003 RMK A01 T02860213  RH  064%=      5-min Rain = 0
KWA1 181507Z 18015KT 29/21 A3003 RMK A01 T02860212  RH  064%=      5-min Rain = 0
KWA1 181508Z 20013KT 29/21 A3003 RMK A01 T02870213  RH  064%=      5-min Rain = 0
KWA1 181509Z 20015KT 29/21 A3003 RMK A01 T02890213  RH  064%=      5-min Rain = 0
KWA1 181510Z 20016KT 29/21 A3003 RMK A01 T02870211  RH  064%=      5-min Rain = 0
KWA1 181511Z 21015KT 29/21 A3003 RMK A01 T02850211  RH  064%=      5-min Rain = 0
KWA1 181512Z 21016KT 29/21 A3003 RMK A01 T02850212  RH  064%=      5-min Rain = 0
KWA1 181513Z 20014KT 29/21 A3003 RMK A01 T02850212  RH  065%=      5-min Rain = 0
KWA1 181514Z 19012KT 29/21 A3003 RMK A01 T02880214  RH  065%=      5-min Rain = 0
KWA1 181515Z 20015KT 29/21 A3003 RMK A01 T02910214  RH  063%=      5-min Rain = 0
KWA1 181516Z 19014KT 29/21 A3003 RMK A01 T02910213  RH  063%=      5-min Rain = 0
KWA1 181517Z 19015KT 29/21 A3003 RMK A01 T02900212  RH  063%=      5-min Rain = 0
KWA1 181518Z 19015KT 29/21 A3003 RMK A01 T02910213  RH  063%=      5-min Rain = 0
KWA1 181519Z 19014KT 29/21 A3003 RMK A01 T02910213  RH  063%=      5-min Rain = 0
KWA1 181520Z 21016KT 29/21 A3003 RMK A01 T02920213  RH  062%=      5-min Rain = 0
KWA1 181521Z 20014KT 29/21 A3003 RMK A01 T02920212  RH  062%=      5-min Rain = 0
KWA1 181522Z 20017KT 29/21 A3003 RMK A01 T02910212  RH  062%=      5-min Rain = 0
KWA1 181523Z 19013KT 29/21 A3003 RMK A01 T02910212  RH  062%=      5-min Rain = 0
KWA1 181524Z 18015KT 29/21 A3003 RMK A01 T02920213  RH  062%=      5-min Rain = 0
KWA1 181525Z 18015KT 29/21 A3003 RMK A01 T02940211  RH  061%=      5-min Rain = 0
KWA1 181526Z 18016KT 29/21 A3003 RMK A01 T02940212  RH  061%=      5-min Rain = 0
KWA1 181527Z 18015KT 29/21 A3003 RMK A01 T02940212  RH  061%=      5-min Rain = 0
KWA1 181528Z 18013KT 29/21 A3003 RMK A01 T02930213  RH  062%=      5-min Rain = 0
KWA1 181529Z 18011KT 30/21 A3003 RMK A01 T02950214  RH  062%=      5-min Rain = 0
KWA1 181530Z 19011G16KT 30/22 A3003 RMK A01 T02970216  RH  062%=      5-min Rain = 0
KWA1 181531Z 19014KT 30/21 A3003 RMK A01 T02990214  RH  061%=      5-min Rain = 0
KWA1 181532Z 20013G20KT 30/22 A3003 RMK A01 T02980215  RH  061%=      5-min Rain = 0
KWA1 181533Z 19014KT 30/21 A3003 RMK A01 T02980213  RH  060%=      5-min Rain = 0
KWA1 181534Z 19017KT 30/21 A3003 RMK A01 T02980212  RH  060%=      5-min Rain = 0
KWA1 181535Z 19016KT 30/21 A3003 RMK A01 T02970212  RH  060%=      5-min Rain = 0
KWA1 181536Z 19012KT 30/21 A3003 RMK A01 T02970211  RH  060%=      5-min Rain = 0
KWA1 181537Z 18012KT 30/21 A3003 RMK A01 T02970212  RH  060%=      5-min Rain = 0
KWA1 181538Z 18012G17KT 30/21 A3003 RMK A01 T02970213  RH  060%=      5-min Rain = 0
KWA1 181539Z 19013KT 30/21 A3003 RMK A01 T02980214  RH  061%=      5-min Rain = 0
KWA1 181540Z 19015KT 30/21 A3003 RMK A01 T03000213  RH  060%=      5-min Rain = 0
KWA1 181541Z 20016KT 30/21 A3003 RMK A01 T03010213  RH  059%=      5-min Rain = 0
KWA1 181542Z 19015KT 30/21 A3003 RMK A01 T03000211  RH  059%=      5-min Rain = 0
KWA1 181543Z 19016KT 30/21 A3003 RMK A01 T02980211  RH  060%=      5-min Rain = 0
KWA1 181544Z 20014KT 30/21 A3003 RMK A01 T02980211  RH  060%=      5-min Rain = 0
KWA1 181545Z 20016KT 30/21 A3003 RMK A01 T02970212  RH  060%=      5-min Rain = 0
KWA1 181546Z 20015KT 30/21 A3003 RMK A01 T02990212  RH  060%=      5-min Rain = 0
KWA1 181547Z 18014KT 30/21 A3003 RMK A01 T02980211  RH  060%=      5-min Rain = 0
KWA1 181548Z 18015KT 30/21 A3003 RMK A01 T02990212  RH  059%=      5-min Rain = 0
KWA1 181549Z 18014KT 30/21 A3003 RMK A01 T03000211  RH  059%=      5-min Rain = 0
KWA1 181550Z 18015KT 30/21 A3003 RMK A01 T03010212  RH  059%=      5-min Rain = 0
KWA1 181551Z 17014KT 30/22 A3002 RMK A01 T03030215  RH  060%=      5-min Rain = 0
KWA1 181552Z 18014KT 31/21 A3002 RMK A01 T03050214  RH  058%=      5-min Rain = 0
KWA1 181553Z 20015G20KT 31/21 A3002 RMK A01 T03050212  RH  057%=      5-min Rain = 0
KWA1 181554Z 20017KT 30/21 A3002 RMK A01 T03040211  RH  058%=      5-min Rain = 0
KWA1 181555Z 18014KT 30/21 A3002 RMK A01 T03030212  RH  058%=      5-min Rain = 0
KWA1 181556Z 19012KT 30/21 A3002 RMK A01 T03040212  RH  058%=      5-min Rain = 0
KWA1 181557Z 21011KT 31/21 A3002 RMK A01 T03050213  RH  058%=      5-min Rain = 0
KWA1 181558Z 18014KT 30/21 A3002 RMK A01 T03040214  RH  059%=      5-min Rain = 0
KWA1 181559Z 18014KT 30/21 A3002 RMK A01 T03040212  RH  058%=      5-min Rain = 0
KWA1 181600Z 20010KT 31/22 A3002 RMK A01 T03050217  RH  059%=      5-min Rain = 0
KWA1 181601Z 19012KT 31/22 A3002 RMK A01 T03090217  RH  058%=      5-min Rain = 0
KWA1 181602Z 19013KT 31/22 A3002 RMK A01 T03110216  RH  057%=      5-min Rain = 0
KWA1 181603Z 20015KT 31/21 A3002 RMK A01 T03090213  RH  057%=      5-min Rain = 0
KWA1 181604Z 19012KT 31/21 A3002 RMK A01 T03060214  RH  058%=      5-min Rain = 0
KWA1 181605Z 19012KT 31/21 A3002 RMK A01 T03060214  RH  058%=      5-min Rain = 0
KWA1 181606Z 20014KT 31/21 A3002 RMK A01 T03070213  RH  057%=      5-min Rain = 0
KWA1 181607Z 19014KT 31/21 A3002 RMK A01 T03080212  RH  056%=      5-min Rain = 0
KWA1 181608Z 19017KT 31/21 A3002 RMK A01 T03100211  RH  056%=      5-min Rain = 0
KWA1 181609Z 19016KT 31/21 A3002 RMK A01 T03100209  RH  055%=      5-min Rain = 0
KWA1 181610Z 19018KT 31/21 A3002 RMK A01 T03080209  RH  055%=      5-min Rain = 0
KWA1 181611Z 20015KT 31/21 A3002 RMK A01 T03060209  RH  056%=      5-min Rain = 0
KWA1 181612Z 21014KT 31/21 A3002 RMK A01 T03070211  RH  057%=      5-min Rain = 0
KWA1 181613Z 21012KT 31/21 A3002 RMK A01 T03080210  RH  056%=      5-min Rain = 0
KWA1 181614Z 19016KT 31/21 A3002 RMK A01 T03090213  RH  057%=      5-min Rain = 0
KWA1 181615Z 19016KT 31/21 A3002 RMK A01 T03110211  RH  055%=      5-min Rain = 0
KWA1 181616Z 18015KT 31/21 A3002 RMK A01 T03120210  RH  055%=      5-min Rain = 0
KWA1 181617Z 18012KT 31/21 A3002 RMK A01 T03120210  RH  055%=      5-min Rain = 0
KWA1 181618Z 19013KT 31/21 A3002 RMK A01 T03100211  RH  055%=      5-min Rain = 0
KWA1 181619Z 19015KT 31/21 A3002 RMK A01 T03110211  RH  056%=      5-min Rain = 0
KWA1 181620Z 18015KT 31/21 A3002 RMK A01 T03130211  RH  055%=      5-min Rain = 0
KWA1 181621Z 20012KT 31/21 A3002 RMK A01 T03130211  RH  055%=      5-min Rain = 0
KWA1 181622Z 20014KT 31/21 A3002 RMK A01 T03140213  RH  055%=      5-min Rain = 0
KWA1 181623Z 20012G17KT 31/21 A3002 RMK A01 T03130213  RH  055%=      5-min Rain = 0
KWA1 181624Z 20016KT 31/21 A3002 RMK A01 T03130211  RH  055%=      5-min Rain = 0
KWA1 181625Z 19014KT 31/21 A3002 RMK A01 T03110210  RH  055%=      5-min Rain = 0
KWA1 181626Z 20015KT 31/21 A3002 RMK A01 T03110210  RH  055%=      5-min Rain = 0
KWA1 181627Z 20014KT 31/21 A3002 RMK A01 T03110210  RH  055%=      5-min Rain = 0
KWA1 181628Z 20015KT 31/21 A3002 RMK A01 T03110210  RH  055%=      5-min Rain = 0
KWA1 181629Z 20014KT 31/21 A3002 RMK A01 T03110210  RH  055%=      5-min Rain = 0
KWA1 181630Z 19014KT 31/21 A3002 RMK A01 T03110212  RH  056%=      5-min Rain = 0
KWA1 181631Z 19015KT 32/21 A3002 RMK A01 T03150213  RH  055%=      5-min Rain = 0
KWA1 181632Z 19013KT 32/21 A3002 RMK A01 T03160213  RH  054%=      5-min Rain = 0
KWA1 181633Z 20012KT 32/21 A3002 RMK A01 T03180214  RH  054%=      5-min Rain = 0
KWA1 181634Z 19015KT 32/21 A3002 RMK A01 T03190212  RH  053%=      5-min Rain = 0
KWA1 181635Z 17013KT 32/21 A3002 RMK A01 T03160209  RH  053%=      5-min Rain = 0
KWA1 181636Z 18013KT 31/21 A3002 RMK A01 T03140210  RH  054%=      5-min Rain = 0
KWA1 181637Z 17011KT 32/21 A3002 RMK A01 T03150211  RH  054%=      5-min Rain = 0
KWA1 181638Z 18013KT 32/21 A3002 RMK A01 T03160212  RH  054%=      5-min Rain = 0
KWA1 181639Z 20014KT 32/21 A3002 RMK A01 T03180210  RH  053%=      5-min Rain = 0
KWA1 181640Z 21014KT 32/21 A3002 RMK A01 T03170210  RH  053%=      5-min Rain = 0
KWA1 181641Z 21013KT 32/21 A3002 RMK A01 T03170210  RH  053%=      5-min Rain = 0
KWA1 181642Z 19014KT 32/21 A3002 RMK A01 T03170211  RH  053%=      5-min Rain = 0
KWA1 181643Z 21014KT 32/21 A3002 RMK A01 T03190211  RH  053%=      5-min Rain = 0
KWA1 181644Z 20018KT 32/21 A3002 RMK A01 T03200210  RH  052%=      5-min Rain = 0
KWA1 181645Z 19016KT 32/21 A3002 RMK A01 T03200209  RH  052%=      5-min Rain = 0
KWA1 181646Z 19015KT 32/21 A3002 RMK A01 T03200209  RH  052%=      5-min Rain = 0
KWA1 181647Z 19014KT 32/21 A3002 RMK A01 T03200210  RH  052%=      5-min Rain = 0
KWA1 181648Z 19015KT 32/21 A3002 RMK A01 T03220211  RH  052%=      5-min Rain = 0
KWA1 181649Z 19017KT 32/21 A3002 RMK A01 T03230208  RH  051%=      5-min Rain = 0
KWA1 181650Z 19012KT 32/21 A3002 RMK A01 T03220210  RH  052%=      5-min Rain = 0
KWA1 181651Z 19012KT 32/21 A3002 RMK A01 T03230210  RH  051%=      5-min Rain = 0
KWA1 181652Z 19010KT 32/21 A3002 RMK A01 T03210209  RH  052%=      5-min Rain = 0
KWA1 181653Z 20014KT 32/21 A3002 RMK A01 T03210209  RH  052%=      5-min Rain = 0
KWA1 181654Z 19014KT 32/21 A3002 RMK A01 T03210209  RH  052%=      5-min Rain = 0
KWA1 181655Z 20014KT 32/21 A3002 RMK A01 T03220209  RH  051%=      5-min Rain = 0
KWA1 181656Z 18015KT 32/21 A3002 RMK A01 T03230210  RH  051%=      5-min Rain = 0
KWA1 181657Z 18015KT 33/21 A3002 RMK A01 T03270209  RH  050%=      5-min Rain = 0
KWA1 181658Z 19015KT 33/21 A3002 RMK A01 T03260209  RH  050%=      5-min Rain = 0
KWA1 181659Z 19019KT 32/21 A3002 RMK A01 T03240207  RH  050%=      5-min Rain = 0
KWA1 181700Z 20017KT 32/21 A3002 RMK A01 T03210207  RH  051%=      5-min Rain = 0
KWA1 181701Z 18015KT 32/21 A3002 RMK A01 T03210210  RH  052%=      5-min Rain = 0
KWA1 181702Z 18014KT 32/21 A3002 RMK A01 T03240208  RH  051%=      5-min Rain = 0
KWA1 181703Z 17011KT 32/21 A3002 RMK A01 T03220207  RH  051%=      5-min Rain = 0
KWA1 181704Z 17014KT 32/21 A3002 RMK A01 T03210209  RH  052%=      5-min Rain = 0
KWA1 181705Z 19014KT 32/21 A3001 RMK A01 T03240210  RH  051%=      5-min Rain = 0
KWA1 181706Z 20013KT 32/21 A3002 RMK A01 T03240209  RH  051%=      5-min Rain = 0
KWA1 181707Z 17013KT 33/21 A3002 RMK A01 T03260213  RH  051%=      5-min Rain = 0
KWA1 181708Z 18017KT 33/21 A3002 RMK A01 T03300210  RH  049%=      5-min Rain = 0
KWA1 181709Z 18016KT 33/21 A3002 RMK A01 T03290209  RH  050%=      5-min Rain = 0
KWA1 181710Z 19016KT 33/21 A3002 RMK A01 T03290209  RH  049%=      5-min Rain = 0
KWA1 181711Z 19014KT 33/21 A3002 RMK A01 T03280209  RH  050%=      5-min Rain = 0
KWA1 181712Z 18015KT 33/21 A3002 RMK A01 T03300209  RH  049%=      5-min Rain = 0
KWA1 181713Z 18014KT 33/21 A3002 RMK A01 T03310207  RH  048%=      5-min Rain = 0
KWA1 181714Z 18010KT 33/21 A3002 RMK A01 T03310208  RH  049%=      5-min Rain = 0
KWA1 181715Z 18010KT 33/21 A3001 RMK A01 T03310211  RH  049%=      5-min Rain = 0
KWA1 181716Z 18016G21KT 33/21 A3001 RMK A01 T03330213  RH  049%=      5-min Rain = 0
KWA1 181717Z 18015KT 34/21 A3001 RMK A01 T03350211  RH  048%=      5-min Rain = 0
KWA1 181718Z 18012KT 33/21 A3001 RMK A01 T03330207  RH  048%=      5-min Rain = 0
KWA1 181719Z 20013KT 33/21 A3001 RMK A01 T03300209  RH  049%=      5-min Rain = 0
KWA1 181720Z 20013KT 33/21 A3001 RMK A01 T03300209  RH  049%=      5-min Rain = 0
KWA1 181721Z 20013KT 33/21 A3001 RMK A01 T03300211  RH  050%=      5-min Rain = 0
KWA1 181722Z 19014KT 33/21 A3001 RMK A01 T03340210  RH  048%=      5-min Rain = 0
KWA1 181723Z 19012KT 33/21 A3001 RMK A01 T03320207  RH  048%=      5-min Rain = 0
KWA1 181724Z 20012KT 33/21 A3001 RMK A01 T03290209  RH  049%=      5-min Rain = 0
KWA1 181725Z 19011G16KT 33/21 A3001 RMK A01 T03310213  RH  050%=      5-min Rain = 0
KWA1 181726Z 18014KT 33/21 A3001 RMK A01 T03340211  RH  049%=      5-min Rain = 0
KWA1 181727Z 16013KT 34/21 A3001 RMK A01 T03350210  RH  048%=      5-min Rain = 0
KWA1 181728Z 18016KT 34/21 A3001 RMK A01 T03350209  RH  048%=      5-min Rain = 0
KWA1 181729Z 18016KT 34/21 A3001 RMK A01 T03350207  RH  047%=      5-min Rain = 0
KWA1 181730Z 17016KT 34/21 A3001 RMK A01 T03350208  RH  047%=      5-min Rain = 0
KWA1 181731Z 18014KT 33/21 A3001 RMK A01 T03340206  RH  047%=      5-min Rain = 0
KWA1 181732Z 17010KT 33/21 A3001 RMK A01 T03310205  RH  048%=      5-min Rain = 0
KWA1 181733Z 17013KT 33/21 A3001 RMK A01 T03310208  RH  049%=      5-min Rain = 0
KWA1 181734Z 18016KT 33/21 A3001 RMK A01 T03330208  RH  048%=      5-min Rain = 0
KWA1 181735Z 19020KT 34/21 A3001 RMK A01 T03350207  RH  047%=      5-min Rain = 0
KWA1 181736Z 19015KT 33/21 A3001 RMK A01 T03330205  RH  047%=      5-min Rain = 0
KWA1 181737Z 20012KT 33/21 A3001 RMK A01 T03320207  RH  048%=      5-min Rain = 0
KWA1 181738Z 18015KT 33/21 A30 RMK A01 T03330208  RH  048%=      5-min Rain = 0
KWA1 181739Z 19013G18KT 34/21 A30 RMK A01 T03370211  RH  048%=      5-min Rain = 0
KWA1 181740Z 19019KT 34/21 A30 RMK A01 T03400208  RH  046%=      5-min Rain = 0
KWA1 181741Z 18015G20KT 34/21 A30 RMK A01 T03380206  RH  046%=      5-min Rain = 0
KWA1 181742Z 19012KT 34/21 A30 RMK A01 T03350206  RH  047%=      5-min Rain = 0
KWA1 181743Z 17015KT 34/21 A30 RMK A01 T03350209  RH  048%=      5-min Rain = 0
KWA1 181744Z 18016KT 34/21 A30 RMK A01 T03350207  RH  047%=      5-min Rain = 0
KWA1 181745Z 17017KT 34/21 A30 RMK A01 T03360207  RH  047%=      5-min Rain = 0
KWA1 181746Z 18016KT 34/21 A30 RMK A01 T03360208  RH  047%=      5-min Rain = 0
KWA1 181747Z 19013KT 34/21 A30 RMK A01 T03350208  RH  047%=      5-min Rain = 0
KWA1 181748Z 19012KT 34/21 A30 RMK A01 T03360208  RH  047%=      5-min Rain = 0
KWA1 181749Z 17013KT 34/21 A30 RMK A01 T03370208  RH  047%=      5-min Rain = 0
KWA1 181750Z 17019KT 34/21 A30 RMK A01 T03390208  RH  046%=      5-min Rain = 0
KWA1 181751Z 16017KT 34/21 A30 RMK A01 T03390205  RH  046%=      5-min Rain = 0
KWA1 181752Z 17018KT 34/21 A30 RMK A01 T03370206  RH  046%=      5-min Rain = 0
KWA1 181753Z 19014KT 34/21 A30 RMK A01 T03370207  RH  046%=      5-min Rain = 0
KWA1 181754Z 21015G20KT 34/21 A30 RMK A01 T03380208  RH  047%=      5-min Rain = 0
KWA1 181755Z 21018KT 34/21 A30 RMK A01 T03380207  RH  046%=      5-min Rain = 0
KWA1 181756Z 20015KT 34/21 A30 RMK A01 T03370207  RH  047%=      5-min Rain = 0
KWA1 181757Z 19013KT 34/21 A30 RMK A01 T03380209  RH  047%=      5-min Rain = 0
KWA1 181758Z 19012KT 34/21 A2999 RMK A01 T03400208  RH  046%=      5-min Rain = 0
KWA1 181759Z 18014G19KT 34/21 A30 RMK A01 T03420210  RH  046%=      5-min Rain = 0
KWA1 181800Z 18017KT 34/21 A30 RMK A01 T03440206  RH  045%=      5-min Rain = 0
KWA1 181801Z 19013KT 35/21 A30 RMK A01 T03450205  RH  044%=      5-min Rain = 0
KWA1 181802Z 20015KT 34/21 A2999 RMK A01 T03440206  RH  045%=      5-min Rain = 0
KWA1 181803Z 21013G18KT 34/21 A2999 RMK A01 T03420207  RH  045%=      5-min Rain = 0
KWA1 181804Z 20017KT 34/20 A2999 RMK A01 T03420202  RH  044%=      5-min Rain = 0
KWA1 181805Z 19015KT 34/20 A2999 RMK A01 T03420202  RH  044%=      5-min Rain = 0
KWA1 181806Z 19019KT 34/20 A2999 RMK A01 T03440202  RH  043%=      5-min Rain = 0
KWA1 181807Z 19017KT 34/20 A2999 RMK A01 T03410199  RH  043%=      5-min Rain = 0
KWA1 181808Z 20014KT 34/20 A2999 RMK A01 T03390199  RH  044%=      5-min Rain = 0
KWA1 181809Z 20014KT 34/20 A2999 RMK A01 T03410204  RH  045%=      5-min Rain = 0
KWA1 181810Z 20013KT 34/20 A2999 RMK A01 T03440203  RH  044%=      5-min Rain = 0
KWA1 181811Z 18013G18KT 35/20 A2999 RMK A01 T03470204  RH  043%=      5-min Rain = 0
KWA1 181812Z 19014KT 35/20 A2999 RMK A01 T03460204  RH  044%=      5-min Rain = 0
KWA1 181813Z 18015KT 35/20 A2999 RMK A01 T03450202  RH  043%=      5-min Rain = 0
KWA1 181814Z 20014G19KT 35/20 A2999 RMK A01 T03450202  RH  043%=      5-min Rain = 0
KWA1 181815Z 21013KT 34/20 A2999 RMK A01 T03440203  RH  044%=      5-min Rain = 0
KWA1 181816Z 20015KT 34/20 A2999 RMK A01 T03440202  RH  043%=      5-min Rain = 0
KWA1 181817Z 19014KT 35/20 A2999 RMK A01 T03450200  RH  043%=      5-min Rain = 0
KWA1 181818Z 19019KT 35/20 A2999 RMK A01 T03450203  RH  044%=      5-min Rain = 0
KWA1 181819Z 18016KT 35/20 A2999 RMK A01 T03470204  RH  043%=      5-min Rain = 0
KWA1 181820Z 19017KT 35/20 A2999 RMK A01 T03470204  RH  043%=      5-min Rain = 0
KWA1 181821Z 20013KT 35/20 A2999 RMK A01 T03470204  RH  043%=      5-min Rain = 0
KWA1 181822Z 18012G18KT 35/21 A2999 RMK A01 T03480207  RH  044%=      5-min Rain = 0
KWA1 181823Z 17015KT 35/21 A2998 RMK A01 T03500205  RH  043%=      5-min Rain = 0
KWA1 181824Z 17015KT 35/21 A2998 RMK A01 T03490206  RH  043%=      5-min Rain = 0
KWA1 181825Z 18014KT 35/21 A2998 RMK A01 T03490207  RH  043%=      5-min Rain = 0
KWA1 181826Z 18020KT 35/20 A2998 RMK A01 T03490204  RH  043%=      5-min Rain = 0
KWA1 181827Z 19016KT 35/20 A2998 RMK A01 T03480202  RH  043%=      5-min Rain = 0
KWA1 181828Z 19015KT 35/20 A2998 RMK A01 T03470201  RH  043%=      5-min Rain = 0
KWA1 181829Z 18015G20KT 35/20 A2998 RMK A01 T03460200  RH  043%=      5-min Rain = 0
KWA1 181830Z 19012KT 35/20 A2998 RMK A01 T03450202  RH  043%=      5-min Rain = 0
KWA1 181831Z 18015G20KT 35/21 A2998 RMK A01 T03470206  RH  044%=      5-min Rain = 0
KWA1 181832Z 18013KT 35/20 A2998 RMK A01 T03500202  RH  042%=      5-min Rain = 0
KWA1 181833Z 19013G19KT 35/20 A2998 RMK A01 T03460204  RH  043%=      5-min Rain = 0
KWA1 181834Z 17017KT 35/21 A2998 RMK A01 T03460206  RH  044%=      5-min Rain = 0
KWA1 181835Z 17017KT 35/20 A2998 RMK A01 T03490204  RH  043%=      5-min Rain = 0
KWA1 181836Z 17017KT 35/20 A2998 RMK A01 T03480203  RH  043%=      5-min Rain = 0
KWA1 181837Z 17012KT 35/20 A2998 RMK A01 T03470202  RH  043%=      5-min Rain = 0
KWA1 181838Z 18014G19KT 35/20 A2998 RMK A01 T03460202  RH  043%=      5-min Rain = 0
KWA1 181839Z 17014KT 35/20 A2998 RMK A01 T03460202  RH  043%=      5-min Rain = 0
KWA1 181840Z 19015KT 35/20 A2998 RMK A01 T03480203  RH  043%=      5-min Rain = 0
KWA1 181841Z 20013KT 35/20 A2998 RMK A01 T03490199  RH  041%=      5-min Rain = 0
KWA1 181842Z 20013KT 35/20 A2998 RMK A01 T03500201  RH  042%=      5-min Rain = 0
KWA1 181843Z 19015G20KT 35/20 A2998 RMK A01 T03500198  RH  041%=      5-min Rain = 0
KWA1 181844Z 19014G20KT 35/20 A2998 RMK A01 T03500200  RH  042%=      5-min Rain = 0
KWA1 181845Z 20016KT 35/20 A2998 RMK A01 T03520201  RH  041%=      5-min Rain = 0
KWA1 181846Z 19014G19KT 35/20 A2998 RMK A01 T03530202  RH  041%=      5-min Rain = 0
KWA1 181847Z 20015KT 36/20 A2998 RMK A01 T03550201  RH  041%=      5-min Rain = 0
KWA1 181848Z 20014KT 35/20 A2998 RMK A01 T03540200  RH  041%=      5-min Rain = 0
KWA1 181849Z 17014KT 35/20 A2998 RMK A01 T03510200  RH  041%=      5-min Rain = 0
KWA1 181850Z 17017KT 35/20 A2998 RMK A01 T03520201  RH  041%=      5-min Rain = 0
KWA1 181851Z 18017KT 35/20 A2997 RMK A01 T03540201  RH  041%=      5-min Rain = 0
KWA1 181852Z 18017KT 36/20 A2997 RMK A01 T03550202  RH  041%=      5-min Rain = 0
KWA1 181853Z 18017KT 36/20 A2998 RMK A01 T03570201  RH  040%=      5-min Rain = 0
KWA1 181854Z 17015KT 36/20 A2997 RMK A01 T03570201  RH  040%=      5-min Rain = 0
KWA1 181855Z 19016KT 36/20 A2997 RMK A01 T03580202  RH  040%=      5-min Rain = 0
KWA1 181856Z 17015KT 36/21 A2997 RMK A01 T03610205  RH  040%=      5-min Rain = 0
KWA1 181857Z 17016KT 36/20 A2997 RMK A01 T03620203  RH  040%=      5-min Rain = 0
KWA1 181858Z 17014KT 36/20 A2997 RMK A01 T03570202  RH  041%=      5-min Rain = 0
KWA1 181859Z 17013KT 36/21 A2997 RMK A01 T03560205  RH  042%=      5-min Rain = 0
KWA1 181900Z 18011KT 36/20 A2997 RMK A01 T03570203  RH  041%=      5-min Rain = 0
KWA1 181901Z 17016G22KT 36/20 A2997 RMK A01 T03560203  RH  041%=      5-min Rain = 0
KWA1 181902Z 18013G18KT 36/20 A2997 RMK A01 T03550203  RH  041%=      5-min Rain = 0
KWA1 181903Z 17019G25KT 36/20 A2997 RMK A01 T03560203  RH  041%=      5-min Rain = 0
KWA1 181904Z 16017G25KT 36/20 A2997 RMK A01 T03560204  RH  041%=      5-min Rain = 0
KWA1 181905Z 18016KT 36/21 A2997 RMK A01 T03600206  RH  041%=      5-min Rain = 0
KWA1 181906Z 19013KT 36/20 A2997 RMK A01 T03600203  RH  040%=      5-min Rain = 0
KWA1 181907Z 19012G18KT 36/20 A2997 RMK A01 T03570204  RH  041%=      5-min Rain = 0
KWA1 181908Z 17016G21KT 36/21 A2997 RMK A01 T03580206  RH  041%=      5-min Rain = 0
KWA1 181909Z 18017KT 36/20 A2997 RMK A01 T03610204  RH  040%=      5-min Rain = 0
KWA1 181910Z 17014KT 36/20 A2997 RMK A01 T03580203  RH  040%=      5-min Rain = 0
KWA1 181911Z 19017KT 36/20 A2997 RMK A01 T03570203  RH  041%=      5-min Rain = 0
KWA1 181912Z 19015KT 36/20 A2997 RMK A01 T03560202  RH  041%=      5-min Rain = 0
KWA1 181913Z 19014KT 36/20 A2997 RMK A01 T03550203  RH  041%=      5-min Rain = 0
KWA1 181914Z 18014G19KT 36/21 A2997 RMK A01 T03560205  RH  041%=      5-min Rain = 0
KWA1 181915Z 17016KT 36/20 A2997 RMK A01 T03580201  RH  040%=      5-min Rain = 0
KWA1 181916Z 16016KT 36/20 A2997 RMK A01 T03560200  RH  040%=      5-min Rain = 0
KWA1 181917Z 16013G18KT 36/20 A2997 RMK A01 T03560202  RH  041%=      5-min Rain = 0
KWA1 181918Z 16015KT 36/21 A2997 RMK A01 T03600205  RH  041%=      5-min Rain = 0
KWA1 181919Z 17015KT 36/20 A2996 RMK A01 T03610201  RH  039%=      5-min Rain = 0
KWA1 181920Z 18015KT 36/20 A2996 RMK A01 T03590202  RH  040%=      5-min Rain = 0
KWA1 181921Z 17016KT 36/21 A2996 RMK A01 T03590205  RH  041%=      5-min Rain = 0
KWA1 181922Z 16016KT 36/20 A2996 RMK A01 T03600204  RH  040%=      5-min Rain = 0
KWA1 181923Z 16015KT 36/20 A2996 RMK A01 T03590202  RH  040%=      5-min Rain = 0
KWA1 181924Z 16012KT 36/20 A2996 RMK A01 T03560202  RH  041%=      5-min Rain = 0
KWA1 181925Z 16014KT 36/20 A2996 RMK A01 T03560204  RH  041%=      5-min Rain = 0
KWA1 181926Z 16014G19KT 36/20 A2996 RMK A01 T03580204  RH  041%=      5-min Rain = 0
KWA1 181927Z 16014KT 36/20 A2996 RMK A01 T03600203  RH  040%=      5-min Rain = 0
KWA1 181928Z 16014KT 36/20 A2996 RMK A01 T03590204  RH  040%=      5-min Rain = 0
KWA1 181929Z 17014G19KT 36/21 A2996 RMK A01 T03600205  RH  041%=      5-min Rain = 0
KWA1 181930Z 17015KT 36/20 A2996 RMK A01 T03620203  RH  040%=      5-min Rain = 0
KWA1 181931Z 19014KT 36/20 A2996 RMK A01 T03610201  RH  039%=      5-min Rain = 0
KWA1 181932Z 16017KT 36/20 A2996 RMK A01 T03600202  RH  040%=      5-min Rain = 0
KWA1 181933Z 16015KT 36/20 A2996 RMK A01 T03590202  RH  040%=      5-min Rain = 0
KWA1 181934Z 15019KT 36/20 A2996 RMK A01 T03600204  RH  040%=      5-min Rain = 0
KWA1 181935Z 16015KT 36/20 A2996 RMK A01 T03600201  RH  040%=      5-min Rain = 0
KWA1 181936Z 17017G23KT 36/20 A2996 RMK A01 T03580203  RH  040%=      5-min Rain = 0
KWA1 181937Z 19017KT 36/20 A2996 RMK A01 T03620201  RH  039%=      5-min Rain = 0
KWA1 181938Z 19016KT 36/20 A2996 RMK A01 T03600198  RH  039%=      5-min Rain = 0
KWA1 181939Z 19015KT 36/20 A2996 RMK A01 T03570199  RH  040%=      5-min Rain = 0
KWA1 181940Z 20014KT 36/20 A2996 RMK A01 T03590201  RH  040%=      5-min Rain = 0
KWA1 181941Z 20014KT 36/20 A2996 RMK A01 T03600201  RH  040%=      5-min Rain = 0
KWA1 181942Z 20019KT 36/20 A2996 RMK A01 T03630200  RH  039%=      5-min Rain = 0
KWA1 181943Z 19011G17KT 36/20 A2995 RMK A01 T03580198  RH  039%=      5-min Rain = 0
KWA1 181944Z 17015KT 36/20 A2996 RMK A01 T03580202  RH  040%=      5-min Rain = 0
KWA1 181945Z 18011KT 36/20 A2995 RMK A01 T03600200  RH  039%=      5-min Rain = 0
KWA1 181946Z 17016KT 36/20 A2995 RMK A01 T03600202  RH  040%=      5-min Rain = 0
KWA1 181947Z 19015KT 36/20 A2995 RMK A01 T03620201  RH  039%=      5-min Rain = 0
KWA1 181948Z 17012KT 36/20 A2995 RMK A01 T03610201  RH  039%=      5-min Rain = 0
KWA1 181949Z 18014KT 36/20 A2995 RMK A01 T03600202  RH  040%=      5-min Rain = 0
KWA1 181950Z 19011KT 36/20 A2995 RMK A01 T03620201  RH  039%=      5-min Rain = 0
KWA1 181951Z 19015G20KT 36/20 A2995 RMK A01 T03620200  RH  039%=      5-min Rain = 0
KWA1 181952Z 18017KT 36/20 A2995 RMK A01 T03610200  RH  039%=      5-min Rain = 0
KWA1 181953Z 17015KT 36/20 A2995 RMK A01 T03630200  RH  039%=      5-min Rain = 0
KWA1 181954Z 16014KT 36/20 A2995 RMK A01 T03640198  RH  038%=      5-min Rain = 0
KWA1 181955Z 16013KT 36/20 A2995 RMK A01 T03640197  RH  038%=      5-min Rain = 0
KWA1 181956Z 17014KT 36/20 A2995 RMK A01 T03640199  RH  038%=      5-min Rain = 0
KWA1 181957Z 18011KT 36/20 A2995 RMK A01 T03630201  RH  039%=      5-min Rain = 0
KWA1 181958Z 20011KT 37/20 A2995 RMK A01 T03650200  RH  038%=      5-min Rain = 0
KWA1 181959Z 20012KT 37/20 A2995 RMK A01 T03650200  RH  038%=      5-min Rain = 0
KWA1 182000Z 19014KT 37/20 A2995 RMK A01 T03680199  RH  037%=      5-min Rain = 0
KWA1 182001Z 18014KT 37/20 A2995 RMK A01 T03670197  RH  037%=      5-min Rain = 0
KWA1 182002Z 17013KT 36/20 A2995 RMK A01 T03640196  RH  037%=      5-min Rain = 0
KWA1 182003Z 17012KT 36/20 A2995 RMK A01 T03640199  RH  038%=      5-min Rain = 0
KWA1 182004Z 19010G16KT 36/20 A2995 RMK A01 T03630199  RH  038%=      5-min Rain = 0
KWA1 182005Z 18015KT 36/20 A2995 RMK A01 T03640197  RH  038%=      5-min Rain = 0
KWA1 182006Z 19012KT 36/20 A2995 RMK A01 T03630195  RH  037%=      5-min Rain = 0
KWA1 182007Z 19009KT 36/20 A2995 RMK A01 T03620199  RH  039%=      5-min Rain = 0
KWA1 182008Z 19011KT 36/20 A2995 RMK A01 T03640199  RH  038%=      5-min Rain = 0
KWA1 182009Z 18014KT 37/20 A2995 RMK A01 T03650202  RH  039%=      5-min Rain = 0
KWA1 182010Z 17018KT 37/20 A2995 RMK A01 T03700202  RH  038%=      5-min Rain = 0
KWA1 182011Z 18017KT 37/20 A2995 RMK A01 T03700200  RH  037%=      5-min Rain = 0
KWA1 182012Z 18012KT 37/20 A2995 RMK A01 T03670198  RH  037%=      5-min Rain = 0
KWA1 182013Z 18012KT 37/20 A2995 RMK A01 T03660198  RH  038%=      5-min Rain = 0
KWA1 182014Z 19012KT 36/20 A2995 RMK A01 T03640198  RH  038%=      5-min Rain = 0
KWA1 182015Z 19008KT 36/20 A2995 RMK A01 T03640195  RH  037%=      5-min Rain = 0
KWA1 182016Z 18011G16KT 36/20 A2994 RMK A01 T03630200  RH  038%=      5-min Rain = 0
KWA1 182017Z 19013KT 37/20 A2995 RMK A01 T03670200  RH  038%=      5-min Rain = 0
KWA1 182018Z 19010KT 37/20 A2995 RMK A01 T03650197  RH  037%=      5-min Rain = 0
KWA1 182019Z 17008KT 36/20 A2995 RMK A01 T03640200  RH  039%=      5-min Rain = 0
KWA1 182020Z 17009KT 37/20 A2994 RMK A01 T03660200  RH  038%=      5-min Rain = 0
KWA1 182021Z 18012KT 37/20 A2994 RMK A01 T03670199  RH  037%=      5-min Rain = 0
KWA1 182022Z 18015KT 37/20 A2994 RMK A01 T03650197  RH  038%=      5-min Rain = 0
KWA1 182023Z 19015KT 37/20 A2994 RMK A01 T03670197  RH  037%=      5-min Rain = 0
KWA1 182024Z 19011KT 37/20 A2994 RMK A01 T03670199  RH  038%=      5-min Rain = 0
KWA1 182025Z 18011KT 37/20 A2994 RMK A01 T03690204  RH  038%=      5-min Rain = 0
KWA1 182026Z 17012KT 37/20 A2994 RMK A01 T03730201  RH  037%=      5-min Rain = 0
KWA1 182027Z 18012KT 37/20 A2994 RMK A01 T03710198  RH  037%=      5-min Rain = 0
KWA1 182028Z 19009KT 36/19 A2994 RMK A01 T03640194  RH  037%=      5-min Rain = 0
KWA1 182029Z 16010KT 36/20 A2994 RMK A01 T03610196  RH  038%=      5-min Rain = 0
KWA1 182030Z 17013KT 36/20 A2994 RMK A01 T03620198  RH  038%=      5-min Rain = 0
KWA1 182031Z 17013KT 37/20 A2994 RMK A01 T03660199  RH  038%=      5-min Rain = 0
KWA1 182032Z 16011KT 37/20 A2994 RMK A01 T03670197  RH  037%=      5-min Rain = 0
KWA1 182033Z 17009KT 37/20 A2994 RMK A01 T03660196  RH  037%=      5-min Rain = 0
KWA1 182034Z 17012KT 37/20 A2994 RMK A01 T03650197  RH  038%=      5-min Rain = 0
KWA1 182035Z 16012G17KT 37/20 A2994 RMK A01 T03650195  RH  037%=      5-min Rain = 0
KWA1 182036Z 17014KT 37/20 A2994 RMK A01 T03650200  RH  038%=      5-min Rain = 0
KWA1 182037Z 17014KT 37/20 A2994 RMK A01 T03690199  RH  037%=      5-min Rain = 0
KWA1 182038Z 18013G18KT 37/20 A2994 RMK A01 T03690198  RH  037%=      5-min Rain = 0
KWA1 182039Z 17012KT 37/20 A2994 RMK A01 T03700198  RH  037%=      5-min Rain = 0
KWA1 182040Z 16011KT 37/20 A2994 RMK A01 T03700200  RH  037%=      5-min Rain = 0
KWA1 182041Z 17014KT 37/20 A2994 RMK A01 T03690197  RH  037%=      5-min Rain = 0
KWA1 182042Z 16014KT 37/20 A2994 RMK A01 T03680198  RH  037%=      5-min Rain = 0
KWA1 182043Z 16018KT 37/20 A2994 RMK A01 T03680199  RH  037%=      5-min Rain = 0
KWA1 182044Z 15014KT 37/20 A2994 RMK A01 T03680198  RH  037%=      5-min Rain = 0
KWA1 182045Z 15013KT 37/20 A2994 RMK A01 T03660196  RH  037%=      5-min Rain = 0
KWA1 182046Z 14010KT 36/19 A2994 RMK A01 T03630194  RH  037%=      5-min Rain = 0
KWA1 182047Z 14011KT 36/20 A2994 RMK A01 T03600196  RH  038%=      5-min Rain = 0
KWA1 182048Z 14014KT 36/20 A2994 RMK A01 T03630197  RH  038%=      5-min Rain = 0
KWA1 182049Z 14013KT 37/20 A2994 RMK A01 T03650196  RH  037%=      5-min Rain = 0
KWA1 182050Z 19012KT 37/20 A2994 RMK A01 T03660196  RH  037%=      5-min Rain = 0
KWA1 182051Z 20008KT 37/20 A2994 RMK A01 T03660196  RH  037%=      5-min Rain = 0
KWA1 182052Z 19009KT 37/20 A2994 RMK A01 T03660196  RH  037%=      5-min Rain = 0
KWA1 182053Z 17013KT 37/20 A2994 RMK A01 T03660195  RH  037%=      5-min Rain = 0
KWA1 182054Z 16014KT 37/19 A2994 RMK A01 T03660194  RH  037%=      5-min Rain = 0
KWA1 182055Z 15012KT 37/20 A2993 RMK A01 T03680198  RH  037%=      5-min Rain = 0
KWA1 182056Z 15014KT 37/20 A2993 RMK A01 T03710196  RH  036%=      5-min Rain = 0
KWA1 182057Z 16014KT 37/20 A2993 RMK A01 T03690195  RH  036%=      5-min Rain = 0
KWA1 182058Z 16014KT 37/19 A2993 RMK A01 T03670193  RH  036%=      5-min Rain = 0
KWA1 182059Z 16010KT 36/19 A2993 RMK A01 T03640193  RH  037%=      5-min Rain = 0
KWA1 182100Z 17009KT 36/19 A2993 RMK A01 T03620193  RH  037%=      5-min Rain = 0
KWA1 182101Z 16011KT 36/19 A2993 RMK A01 T03630194  RH  037%=      5-min Rain = 0
KWA1 182102Z 18009KT 36/20 A2993 RMK A01 T03640195  RH  037%=      5-min Rain = 0
KWA1 182103Z 17008G14KT 37/20 A2993 RMK A01 T03650195  RH  037%=      5-min Rain = 0
KWA1 182104Z 15011KT 36/20 A2993 RMK A01 T03640199  RH  038%=      5-min Rain = 0
KWA1 182105Z 18016G21KT 36/20 A2993 RMK A01 T03640196  RH  038%=      5-min Rain = 0
KWA1 182106Z 18013KT 36/19 A2993 RMK A01 T03640194  RH  037%=      5-min Rain = 0
KWA1 182107Z 18013KT 36/20 A2993 RMK A01 T03640196  RH  037%=      5-min Rain = 0
KWA1 182108Z 19012KT 36/19 A2993 RMK A01 T03630194  RH  037%=      5-min Rain = 0
KWA1 182109Z 19010KT 36/20 A2993 RMK A01 T03620195  RH  038%=      5-min Rain = 0
KWA1 182110Z 17008KT 36/20 A2993 RMK A01 T03610196  RH  038%=      5-min Rain = 0
KWA1 182111Z 15011KT 36/20 A2993 RMK A01 T03620197  RH  038%=      5-min Rain = 0
KWA1 182112Z 16012KT 36/20 A2993 RMK A01 T03630198  RH  038%=      5-min Rain = 0
KWA1 182113Z 17011KT 37/20 A2993 RMK A01 T03680203  RH  038%=      5-min Rain = 0
KWA1 182114Z 20011KT 37/20 A2993 RMK A01 T03720200  RH  037%=      5-min Rain = 0
KWA1 182115Z 18014KT 37/20 A2993 RMK A01 T03710196  RH  036%=      5-min Rain = 0
KWA1 182116Z 17013KT 37/20 A2993 RMK A01 T03690199  RH  037%=      5-min Rain = 0
KWA1 182117Z 17015KT 37/20 A2993 RMK A01 T03700197  RH  036%=      5-min Rain = 0
KWA1 182118Z 17011KT 37/20 A2993 RMK A01 T03700195  RH  036%=      5-min Rain = 0
KWA1 182119Z 18011KT 37/20 A2993 RMK A01 T03690198  RH  037%=      5-min Rain = 0
KWA1 182120Z 17011KT 37/20 A2993 RMK A01 T03720197  RH  036%=      5-min Rain = 0
KWA1 182121Z 18013KT 37/20 A2993 RMK A01 T03710196  RH  036%=      5-min Rain = 0
KWA1 182122Z 16013G20KT 37/20 A2992 RMK A01 T03710197  RH  036%=      5-min Rain = 0
KWA1 182123Z 20012KT 37/20 A2992 RMK A01 T03720198  RH  036%=      5-min Rain = 0
KWA1 182124Z 18014KT 37/20 A2992 RMK A01 T03720195  RH  036%=      5-min Rain = 0
KWA1 182125Z 17016KT 37/20 A2992 RMK A01 T03700195  RH  036%=      5-min Rain = 0
KWA1 182126Z 16018KT 37/19 A2992 RMK A01 T03700192  RH  035%=      5-min Rain = 0
KWA1 182127Z 17012KT 37/19 A2992 RMK A01 T03660190  RH  036%=      5-min Rain = 0
KWA1 182128Z 16011KT 36/19 A2992 RMK A01 T03640189  RH  036%=      5-min Rain = 0
KWA1 182129Z 14007KT 36/19 A2992 RMK A01 T03620189  RH  036%=      5-min Rain = 0
KWA1 182130Z 15011KT 36/19 A2992 RMK A01 T03610191  RH  037%=      5-min Rain = 0
KWA1 182131Z 14012KT 36/19 A2992 RMK A01 T03630191  RH  037%=      5-min Rain = 0
KWA1 182132Z 16012KT 37/20 A2992 RMK A01 T03650195  RH  037%=      5-min Rain = 0
KWA1 182133Z 15011KT 37/19 A2992 RMK A01 T03680194  RH  036%=      5-min Rain = 0
KWA1 182134Z 16014KT 37/19 A2992 RMK A01 T03690194  RH  036%=      5-min Rain = 0
KWA1 182135Z 19011KT 37/19 A2992 RMK A01 T03690194  RH  036%=      5-min Rain = 0
KWA1 182136Z 18012KT 37/19 A2992 RMK A01 T03680193  RH  036%=      5-min Rain = 0
KWA1 182137Z 17013KT 37/20 A2992 RMK A01 T03680197  RH  037%=      5-min Rain = 0
KWA1 182138Z 16015KT 37/20 A2992 RMK A01 T03710195  RH  036%=      5-min Rain = 0
KWA1 182139Z 16012KT 37/19 A2992 RMK A01 T03700191  RH  035%=      5-min Rain = 0
KWA1 182140Z 17011KT 37/19 A2992 RMK A01 T03650192  RH  036%=      5-min Rain = 0
KWA1 182141Z 14014KT 37/19 A2992 RMK A01 T03670194  RH  036%=      5-min Rain = 0
KWA1 182142Z 15014KT 37/19 A2992 RMK A01 T03690192  RH  036%=      5-min Rain = 0
KWA1 182143Z 15016KT 37/19 A2992 RMK A01 T03670190  RH  035%=      5-min Rain = 0
KWA1 182144Z 15015KT 37/19 A2992 RMK A01 T03660190  RH  036%=      5-min Rain = 0
KWA1 182145Z 17015KT 37/19 A2992 RMK A01 T03670190  RH  036%=      5-min Rain = 0
KWA1 182146Z 17013KT 37/19 A2992 RMK A01 T03670189  RH  035%=      5-min Rain = 0
KWA1 182147Z 16012KT 37/19 A2992 RMK A01 T03660190  RH  036%=      5-min Rain = 0
KWA1 182148Z 16015KT 37/19 A2992 RMK A01 T03670191  RH  036%=      5-min Rain = 0
KWA1 182149Z 16014KT 37/19 A2992 RMK A01 T03690191  RH  036%=      5-min Rain = 0
KWA1 182150Z 19010KT 37/19 A2992 RMK A01 T03690192  RH  036%=      5-min Rain = 0
KWA1 182151Z 18012G18KT 37/19 A2992 RMK A01 T03660191  RH  036%=      5-min Rain = 0
KWA1 182152Z 17012KT 37/19 A2992 RMK A01 T03680191  RH  036%=      5-min Rain = 0
KWA1 182153Z 16009KT 37/19 A2992 RMK A01 T03670191  RH  036%=      5-min Rain = 0
KWA1 182154Z 16010KT 37/19 A2991 RMK A01 T03660191  RH  036%=      5-min Rain = 0
KWA1 182155Z 17010KT 37/19 A2991 RMK A01 T03670192  RH  036%=      5-min Rain = 0
KWA1 182156Z 16012G17KT 37/19 A2991 RMK A01 T03680192  RH  036%=      5-min Rain = 0
KWA1 182157Z 15017KT 37/19 A2991 RMK A01 T03680188  RH  035%=      5-min Rain = 0
KWA1 182158Z 16015KT 37/19 A2991 RMK A01 T03660188  RH  035%=      5-min Rain = 0
KWA1 182159Z 16013KT 37/19 A2991 RMK A01 T03660189  RH  036%=      5-min Rain = 0
KWA1 182200Z 16014KT 37/19 A2991 RMK A01 T03670188  RH  035%=      5-min Rain = 0
KWA1 182201Z 16013KT 37/19 A2991 RMK A01 T03660188  RH  035%=      5-min Rain = 0
KWA1 182202Z 17010KT 37/19 A2991 RMK A01 T03660188  RH  035%=      5-min Rain = 0
KWA1 182203Z 16010KT 37/19 A2991 RMK A01 T03660190  RH  036%=      5-min Rain = 0
KWA1 182204Z 16011KT 37/19 A2991 RMK A01 T03670190  RH  035%=      5-min Rain = 0
KWA1 182205Z 14015KT 37/19 A2991 RMK A01 T03680188  RH  035%=      5-min Rain = 0
KWA1 182206Z 15012KT 37/19 A2991 RMK A01 T03660186  RH  035%=      5-min Rain = 0
KWA1 182207Z 13011KT 37/19 A2991 RMK A01 T03650186  RH  035%=      5-min Rain = 0
KWA1 182208Z 15011KT 37/19 A2991 RMK A01 T03660188  RH  035%=      5-min Rain = 0
KWA1 182209Z 14011KT 37/19 A2991 RMK A01 T03660186  RH  035%=      5-min Rain = 0
KWA1 182210Z 13010KT 37/19 A2991 RMK A01 T03660187  RH  035%=      5-min Rain = 0
KWA1 182211Z 14009KT 37/19 A2991 RMK A01 T03650189  RH  036%=      5-min Rain = 0
KWA1 182212Z 15010KT 37/19 A2991 RMK A01 T03650191  RH  036%=      5-min Rain = 0
KWA1 182213Z 16010KT 37/19 A2991 RMK A01 T03660191  RH  036%=      5-min Rain = 0
KWA1 182214Z 15012KT 37/19 A2991 RMK A01 T03670190  RH  036%=      5-min Rain = 0
KWA1 182215Z 15012KT 37/19 A2991 RMK A01 T03680190  RH  035%=      5-min Rain = 0
KWA1 182216Z 13012KT 37/19 A2991 RMK A01 T03680188  RH  035%=      5-min Rain = 0
KWA1 182217Z 14014KT 37/19 A299 RMK A01 T03670187  RH  035%=      5-min Rain = 0
KWA1 182218Z 15015KT 37/19 A299 RMK A01 T03670188  RH  035%=      5-min Rain = 0
KWA1 182219Z 16013KT 37/19 A299 RMK A01 T03680187  RH  035%=      5-min Rain = 0
KWA1 182220Z 16015KT 37/19 A299 RMK A01 T03690188  RH  035%=      5-min Rain = 0
KWA1 182221Z 16015KT 37/19 A299 RMK A01 T03700186  RH  034%=      5-min Rain = 0
KWA1 182222Z 16013KT 37/19 A2991 RMK A01 T03680187  RH  035%=      5-min Rain = 0
KWA1 182223Z 16013KT 37/19 A2991 RMK A01 T03660187  RH  035%=      5-min Rain = 0
KWA1 182224Z 15010KT 36/19 A299 RMK A01 T03640186  RH  035%=      5-min Rain = 0
KWA1 182225Z 16010KT 36/19 A299 RMK A01 T03630188  RH  036%=      5-min Rain = 0
KWA1 182226Z 16011KT 36/19 A299 RMK A01 T03630187  RH  036%=      5-min Rain = 0
KWA1 182227Z 15012KT 36/19 A299 RMK A01 T03640188  RH  036%=      5-min Rain = 0
KWA1 182228Z 15010KT 36/19 A299 RMK A01 T03640188  RH  036%=      5-min Rain = 0
KWA1 182229Z 15008KT 36/19 A299 RMK A01 T03630188  RH  036%=      5-min Rain = 0
KWA1 182230Z 15009KT 36/19 A299 RMK A01 T03640190  RH  036%=      5-min Rain = 0
KWA1 182231Z 16013KT 37/19 A299 RMK A01 T03650190  RH  036%=      5-min Rain = 0
KWA1 182232Z 18010KT 37/19 A299 RMK A01 T03660190  RH  036%=      5-min Rain = 0
KWA1 182233Z 18013KT 37/19 A299 RMK A01 T03670191  RH  036%=      5-min Rain = 0
KWA1 182234Z 18015KT 37/19 A299 RMK A01 T03680191  RH  036%=      5-min Rain = 0
KWA1 182235Z 18014KT 37/19 A299 RMK A01 T03680189  RH  035%=      5-min Rain = 0
KWA1 182236Z 17013KT 37/19 A299 RMK A01 T03670188  RH  035%=      5-min Rain = 0
KWA1 182237Z 15012KT 37/19 A299 RMK A01 T03670190  RH  036%=      5-min Rain = 0
KWA1 182238Z 15011KT 37/19 A299 RMK A01 T03660189  RH  035%=      5-min Rain = 0
KWA1 182239Z 14011KT 37/19 A299 RMK A01 T03650189  RH  036%=      5-min Rain = 0
KWA1 182240Z 15012KT 37/19 A299 RMK A01 T03660189  RH  035%=      5-min Rain = 0
KWA1 182241Z 15015KT 37/19 A299 RMK A01 T03670187  RH  035%=      5-min Rain = 0
KWA1 182242Z 15010KT 37/19 A299 RMK A01 T03670185  RH  035%=      5-min Rain = 0
KWA1 182243Z 16011KT 37/19 A299 RMK A01 T03650185  RH  035%=      5-min Rain = 0
KWA1 182244Z 17013KT 36/19 A299 RMK A01 T03640190  RH  036%=      5-min Rain = 0
KWA1 182245Z 17014KT 37/19 A299 RMK A01 T03670189  RH  035%=      5-min Rain = 0
KWA1 182246Z 16016KT 37/19 A2989 RMK A01 T03670189  RH  035%=      5-min Rain = 0
KWA1 182247Z 15013KT 37/19 A2989 RMK A01 T03680189  RH  035%=      5-min Rain = 0
KWA1 182248Z 15013KT 37/19 A2989 RMK A01 T03660187  RH  035%=      5-min Rain = 0
KWA1 182249Z 14013KT 36/19 A2989 RMK A01 T03640189  RH  036%=      5-min Rain = 0
KWA1 182250Z 14011KT 36/19 A2989 RMK A01 T03640189  RH  036%=      5-min Rain = 0
KWA1 182251Z 13011KT 37/19 A2989 RMK A01 T03650188  RH  036%=      5-min Rain = 0
KWA1 182252Z 14013G18KT 36/19 A2989 RMK A01 T03640189  RH  036%=      5-min Rain = 0
KWA1 182253Z 16013KT 36/19 A2989 RMK A01 T03640189  RH  036%=      5-min Rain = 0
KWA1 182254Z 16011KT 36/19 A2989 RMK A01 T03640190  RH  036%=      5-min Rain = 0
KWA1 182255Z 17012KT 37/19 A2989 RMK A01 T03660191  RH  036%=      5-min Rain = 0
KWA1 182256Z 17013KT 37/19 A2989 RMK A01 T03660191  RH  036%=      5-min Rain = 0
KWA1 182257Z 15013KT 37/19 A2989 RMK A01 T03660190  RH  036%=      5-min Rain = 0
KWA1 182258Z 15011KT 37/19 A2989 RMK A01 T03650188  RH  036%=      5-min Rain = 0
KWA1 182259Z 15012KT 36/19 A2989 RMK A01 T03640190  RH  036%=      5-min Rain = 0
KWA1 182300Z 15013KT 36/19 A2989 RMK A01 T03640187  RH  036%=      5-min Rain = 0
KWA1 182301Z 15014KT 36/19 A2989 RMK A01 T03640186  RH  035%=      5-min Rain = 0
KWA1 182302Z 15014KT 36/19 A2989 RMK A01 T03630187  RH  036%=      5-min Rain = 0
KWA1 182303Z 16014KT 37/19 A2989 RMK A01 T03650190  RH  036%=      5-min Rain = 0
KWA1 182304Z 16013KT 37/19 A2989 RMK A01 T03670188  RH  035%=      5-min Rain = 0
KWA1 182305Z 16012KT 37/19 A2989 RMK A01 T03660187  RH  035%=      5-min Rain = 0
KWA1 182306Z 17015KT 37/19 A2989 RMK A01 T03650188  RH  036%=      5-min Rain = 0
KWA1 182307Z 16012KT 37/19 A2989 RMK A01 T03650188  RH  035%=      5-min Rain = 0
KWA1 182308Z 14015KT 37/19 A2989 RMK A01 T03660188  RH  035%=      5-min Rain = 0
KWA1 182309Z 15013KT 36/19 A2989 RMK A01 T03640185  RH  035%=      5-min Rain = 0
KWA1 182310Z 14013KT 36/19 A2989 RMK A01 T03630186  RH  035%=      5-min Rain = 0
KWA1 182311Z 14015KT 36/19 A2989 RMK A01 T03620185  RH  035%=      5-min Rain = 0
KWA1 182312Z 14015KT 36/19 A2989 RMK A01 T03620185  RH  036%=      5-min Rain = 0
KWA1 182313Z 15016KT 36/19 A2989 RMK A01 T03620186  RH  036%=      5-min Rain = 0
KWA1 182314Z 14017KT 36/19 A2989 RMK A01 T03620185  RH  035%=      5-min Rain = 0
KWA1 182315Z 15016KT 36/19 A2989 RMK A01 T03610186  RH  036%=      5-min Rain = 0
KWA1 182316Z 14015KT 36/19 A2989 RMK A01 T03620186  RH  036%=      5-min Rain = 0
KWA1 182317Z 14017KT 36/19 A2989 RMK A01 T03620185  RH  035%=      5-min Rain = 0
KWA1 182318Z 15015KT 36/18 A2989 RMK A01 T03620184  RH  035%=      5-min Rain = 0
KWA1 182319Z 15016KT 36/19 A2988 RMK A01 T03600185  RH  036%=      5-min Rain = 0
KWA1 182320Z 15014KT 36/18 A2988 RMK A01 T03600184  RH  036%=      5-min Rain = 0
KWA1 182321Z 16013KT 36/19 A2988 RMK A01 T03600185  RH  036%=      5-min Rain = 0
KWA1 182322Z 16013KT 36/19 A2988 RMK A01 T03620185  RH  035%=      5-min Rain = 0
KWA1 182323Z 15013KT 36/19 A2988 RMK A01 T03630185  RH  035%=      5-min Rain = 0
KWA1 182324Z 15015KT 36/18 A2988 RMK A01 T03630184  RH  035%=      5-min Rain = 0
KWA1 182325Z 15012KT 36/18 A2988 RMK A01 T03630183  RH  035%=      5-min Rain = 0
KWA1 182326Z 16012KT 36/18 A2988 RMK A01 T03630183  RH  035%=      5-min Rain = 0
KWA1 182327Z 16013KT 36/19 A2988 RMK A01 T03630185  RH  035%=      5-min Rain = 0
KWA1 182328Z 15015KT 36/18 A2988 RMK A01 T03620183  RH  035%=      5-min Rain = 0
KWA1 182329Z 15014KT 36/18 A2989 RMK A01 T03620182  RH  035%=      5-min Rain = 0
KWA1 182330Z 15011KT 36/18 A2989 RMK A01 T03610183  RH  035%=      5-min Rain = 0
KWA1 182331Z 15014KT 36/18 A2989 RMK A01 T03620182  RH  035%=      5-min Rain = 0
KWA1 182332Z 15013KT 36/18 A2989 RMK A01 T03630182  RH  035%=      5-min Rain = 0
KWA1 182333Z 16014KT 36/18 A2989 RMK A01 T03630183  RH  035%=      5-min Rain = 0
KWA1 182334Z 16013KT 36/18 A2989 RMK A01 T03630181  RH  034%=      5-min Rain = 0
KWA1 182335Z 16011KT 36/18 A2989 RMK A01 T03620183  RH  035%=      5-min Rain = 0
KWA1 182336Z 16010KT 36/19 A2989 RMK A01 T03620185  RH  035%=      5-min Rain = 0
KWA1 182337Z 16013KT 37/19 A2989 RMK A01 T03650187  RH  035%=      5-min Rain = 0
KWA1 182338Z 17012KT 37/18 A2989 RMK A01 T03660183  RH  034%=      5-min Rain = 0
KWA1 182339Z 16014KT 37/18 A2989 RMK A01 T03650184  RH  035%=      5-min Rain = 0
KWA1 182340Z 16014KT 36/18 A2989 RMK A01 T03640182  RH  034%=      5-min Rain = 0
KWA1 182341Z 16015KT 36/18 A2988 RMK A01 T03630181  RH  034%=      5-min Rain = 0
KWA1 182342Z 16014KT 36/18 A2988 RMK A01 T03610179  RH  034%=      5-min Rain = 0
KWA1 182343Z 16012KT 36/18 A2988 RMK A01 T03610179  RH  034%=      5-min Rain = 0
KWA1 182344Z 16013KT 36/18 A2988 RMK A01 T03610179  RH  034%=      5-min Rain = 0
KWA1 182345Z 15014KT 36/18 A2988 RMK A01 T03600179  RH  034%=      5-min Rain = 0
KWA1 182346Z 14015KT 36/18 A2988 RMK A01 T03600178  RH  034%=      5-min Rain = 0
KWA1 182347Z 14014KT 36/18 A2988 RMK A01 T03600176  RH  034%=      5-min Rain = 0
KWA1 182348Z 15015KT 36/18 A2988 RMK A01 T03600177  RH  034%=      5-min Rain = 0
KWA1 182349Z 15015KT 36/18 A2988 RMK A01 T03600175  RH  034%=      5-min Rain = 0
KWA1 182350Z 15015KT 36/17 A2988 RMK A01 T03590174  RH  034%=      5-min Rain = 0
KWA1 182351Z 14015KT 36/18 A2988 RMK A01 T03590175  RH  034%=      5-min Rain = 0
KWA1 182352Z 14016KT 36/17 A2988 RMK A01 T03590174  RH  034%=      5-min Rain = 0
KWA1 182353Z 14015KT 36/17 A2988 RMK A01 T03580172  RH  033%=      5-min Rain = 0
KWA1 182354Z 15013KT 36/17 A2989 RMK A01 T03580173  RH  034%=      5-min Rain = 0
KWA1 182355Z 15014KT 36/17 A2989 RMK A01 T03570174  RH  034%=      5-min Rain = 0
KWA1 182356Z 16017KT 36/17 A2988 RMK A01 T03580173  RH  034%=      5-min Rain = 0
KWA1 182357Z 16016KT 36/17 A2989 RMK A01 T03570173  RH  034%=      5-min Rain = 0
KWA1 182358Z 16016KT 36/17 A2989 RMK A01 T03580174  RH  034%=      5-min Rain = 0
KWA1 182359Z 15014KT 36/17 A2989 RMK A01 T03580174  RH  034%=      5-min Rain = 0
KWA1 190000Z 15012KT 36/18 A2989 RMK A01 T03580175  RH  034%=      5-min Rain = 0
KWA1 190001Z 15013KT 36/18 A2989 RMK A01 T03580175  RH  034%=      5-min Rain = 0
KWA1 190002Z 15014KT 36/17 A2989 RMK A01 T03580174  RH  034%=      5-min Rain = 0
KWA1 190003Z 16013KT 36/18 A2989 RMK A01 T03580176  RH  034%=      5-min Rain = 0
KWA1 190004Z 16012KT 36/18 A2989 RMK A01 T03580176  RH  034%=      5-min Rain = 0
KWA1 190005Z 16014KT 36/18 A2989 RMK A01 T03590175  RH  034%=      5-min Rain = 0
KWA1 190006Z 16013KT 36/17 A2989 RMK A01 T03580174  RH  034%=      5-min Rain = 0
KWA1 190007Z 15011KT 36/18 A2989 RMK A01 T03580176  RH  034%=      5-min Rain = 0
KWA1 190008Z 14015KT 36/17 A2989 RMK A01 T03580173  RH  034%=      5-min Rain = 0
KWA1 190009Z 14016KT 36/17 A2989 RMK A01 T03570173  RH  034%=      5-min Rain = 0
KWA1 190010Z 16017KT 36/17 A2989 RMK A01 T03570174  RH  034%=      5-min Rain = 0
KWA1 190011Z 16018KT 36/17 A2989 RMK A01 T03570172  RH  033%=      5-min Rain = 0
KWA1 190012Z 15015KT 36/17 A2989 RMK A01 T03560171  RH  034%=      5-min Rain = 0
KWA1 190013Z 15016KT 36/17 A2989 RMK A01 T03550171  RH  034%=      5-min Rain = 0
KWA1 190014Z 15016KT 36/17 A2989 RMK A01 T03550171  RH  034%=      5-min Rain = 0
KWA1 190015Z 16015KT 35/17 A2988 RMK A01 T03540170  RH  034%=      5-min Rain = 0
KWA1 190016Z 15014KT 35/17 A2988 RMK A01 T03540171  RH  034%=      5-min Rain = 0
KWA1 190017Z 15015KT 35/17 A2988 RMK A01 T03540170  RH  034%=      5-min Rain = 0
KWA1 190018Z 15014KT 35/17 A2988 RMK A01 T03540171  RH  034%=      5-min Rain = 0
KWA1 190019Z 14014KT 35/17 A2988 RMK A01 T03540169  RH  033%=      5-min Rain = 0
KWA1 190020Z 15016KT 35/17 A2988 RMK A01 T03540169  RH  033%=      5-min Rain = 0
KWA1 190021Z 16016KT 35/17 A2988 RMK A01 T03540168  RH  033%=      5-min Rain = 0
KWA1 190022Z 16016KT 35/17 A2989 RMK A01 T03540168  RH  033%=      5-min Rain = 0
KWA1 190023Z 16016KT 35/17 A2988 RMK A01 T03540167  RH  033%=      5-min Rain = 0
KWA1 190024Z 15016KT 35/17 A2989 RMK A01 T03540167  RH  033%=      5-min Rain = 0
KWA1 190025Z 15015KT 35/17 A2989 RMK A01 T03540167  RH  033%=      5-min Rain = 0
KWA1 190026Z 16018KT 35/17 A2989 RMK A01 T03540167  RH  033%=      5-min Rain = 0
KWA1 190027Z 16017KT 35/17 A2989 RMK A01 T03530167  RH  033%=      5-min Rain = 0
KWA1 190028Z 16016KT 35/17 A2989 RMK A01 T03520167  RH  033%=      5-min Rain = 0
KWA1 190029Z 15015KT 35/17 A2989 RMK A01 T03520168  RH  034%=      5-min Rain = 0
KWA1 190030Z 15013G18KT 35/17 A2989 RMK A01 T03520168  RH  033%=      5-min Rain = 0
KWA1 190031Z 15016KT 35/17 A2989 RMK A01 T03520167  RH  033%=      5-min Rain = 0
KWA1 190032Z 15015KT 35/17 A2989 RMK A01 T03520165  RH  033%=      5-min Rain = 0
KWA1 190033Z 16017KT 35/17 A2989 RMK A01 T03520165  RH  033%=      5-min Rain = 0
KWA1 190034Z 15014KT 35/17 A2989 RMK A01 T03510165  RH  033%=      5-min Rain = 0
KWA1 190035Z 16016KT 35/16 A2989 RMK A01 T03510164  RH  033%=      5-min Rain = 0
KWA1 190036Z 15015KT 35/17 A2989 RMK A01 T03510165  RH  033%=      5-min Rain = 0
KWA1 190037Z 15015KT 35/17 A2989 RMK A01 T03500165  RH  033%=      5-min Rain = 0
KWA1 190038Z 15015KT 35/16 A2989 RMK A01 T03500164  RH  033%=      5-min Rain = 0
KWA1 190039Z 15015KT 35/17 A2989 RMK A01 T03510166  RH  033%=      5-min Rain = 0
KWA1 190040Z 15015KT 35/17 A2989 RMK A01 T03500165  RH  033%=      5-min Rain = 0
KWA1 190041Z 16013KT 35/17 A2989 RMK A01 T03500165  RH  033%=      5-min Rain = 0
KWA1 190042Z 16016KT 35/17 A2989 RMK A01 T03500165  RH  033%=      5-min Rain = 0
KWA1 190043Z 16015KT 35/16 A2989 RMK A01 T03500164  RH  033%=      5-min Rain = 0
KWA1 190044Z 15014KT 35/16 A2989 RMK A01 T03490164  RH  033%=      5-min Rain = 0
KWA1 190045Z 15014KT 35/17 A2989 RMK A01 T03490165  RH  034%=      5-min Rain = 0
KWA1 190046Z 15015KT 35/16 A2989 RMK A01 T03490164  RH  033%=      5-min Rain = 0
KWA1 190047Z 15015KT 35/16 A2989 RMK A01 T03480163  RH  033%=      5-min Rain = 0
KWA1 190048Z 15015KT 35/16 A2989 RMK A01 T03480163  RH  033%=      5-min Rain = 0
KWA1 190049Z 15013KT 35/16 A2989 RMK A01 T03480163  RH  033%=      5-min Rain = 0
KWA1 190050Z 15013KT 35/16 A2989 RMK A01 T03470164  RH  034%=      5-min Rain = 0
KWA1 190051Z 16013KT 35/16 A2989 RMK A01 T03470164  RH  034%=      5-min Rain = 0
KWA1 190052Z 15013G18KT 35/16 A2989 RMK A01 T03470164  RH  034%=      5-min Rain = 0
KWA1 190053Z 16017KT 35/16 A2989 RMK A01 T03470163  RH  033%=      5-min Rain = 0
KWA1 190054Z 15017KT 35/16 A2989 RMK A01 T03460161  RH  033%=      5-min Rain = 0
KWA1 190055Z 15015KT 35/16 A2989 RMK A01 T03470160  RH  033%=      5-min Rain = 0
KWA1 190056Z 15014KT 35/16 A2989 RMK A01 T03460162  RH  033%=      5-min Rain = 0
KWA1 190057Z 15014KT 35/16 A2989 RMK A01 T03460162  RH  033%=      5-min Rain = 0
KWA1 190058Z 16016KT 35/16 A2989 RMK A01 T03450159  RH  033%=      5-min Rain = 0
KWA1 190059Z 15014KT 35/16 A2989 RMK A01 T03450159  RH  033%=      5-min Rain = 0
KWA1 190100Z 15015KT 35/16 A2989 RMK A01 T03450159  RH  033%=      5-min Rain = 0
KWA1 190101Z 15016KT 35/16 A2989 RMK A01 T03450158  RH  033%=      5-min Rain = 0
KWA1 190102Z 16015KT 35/16 A2989 RMK A01 T03450158  RH  033%=      5-min Rain = 0
KWA1 190103Z 16015KT 34/16 A2989 RMK A01 T03440158  RH  033%=      5-min Rain = 0
KWA1 190104Z 15016KT 34/16 A2989 RMK A01 T03440158  RH  033%=      5-min Rain = 0
KWA1 190105Z 15015KT 34/16 A2989 RMK A01 T03430157  RH  033%=      5-min Rain = 0
KWA1 190106Z 15012KT 34/16 A2989 RMK A01 T03430158  RH  033%=      5-min Rain = 0
KWA1 190107Z 15013KT 34/16 A2989 RMK A01 T03430158  RH  033%=      5-min Rain = 0
KWA1 190108Z 16012KT 34/16 A2989 RMK A01 T03420158  RH  033%=      5-min Rain = 0
KWA1 190109Z 16014KT 34/16 A2989 RMK A01 T03410157  RH  033%=      5-min Rain = 0
KWA1 190110Z 16013KT 34/16 A2989 RMK A01 T03420156  RH  033%=      5-min Rain = 0
KWA1 190111Z 15013KT 34/16 A2989 RMK A01 T03410157  RH  033%=      5-min Rain = 0
KWA1 190112Z 15014KT 34/16 A2989 RMK A01 T03410156  RH  033%=      5-min Rain = 0
KWA1 190113Z 15013KT 34/16 A2989 RMK A01 T03410155  RH  033%=      5-min Rain = 0
KWA1 190114Z 15014KT 34/16 A2989 RMK A01 T03400156  RH  033%=      5-min Rain = 0
KWA1 190115Z 15013KT 34/16 A2989 RMK A01 T03390155  RH  033%=      5-min Rain = 0
KWA1 190116Z 16012KT 34/16 A2989 RMK A01 T03400155  RH  033%=      5-min Rain = 0
KWA1 190117Z 16011KT 34/16 A2989 RMK A01 T03390155  RH  033%=      5-min Rain = 0
KWA1 190118Z 15013KT 34/16 A2989 RMK A01 T03390155  RH  033%=      5-min Rain = 0
KWA1 190119Z 15013KT 34/15 A2989 RMK A01 T03380154  RH  033%=      5-min Rain = 0
KWA1 190120Z 16013KT 34/15 A2989 RMK A01 T03380154  RH  033%=      5-min Rain = 0
KWA1 190121Z 16012KT 34/15 A2989 RMK A01 T03380153  RH  033%=      5-min Rain = 0
KWA1 190122Z 16011KT 34/15 A2989 RMK A01 T03370153  RH  033%=      5-min Rain = 0
KWA1 190123Z 16012KT 34/15 A2989 RMK A01 T03360153  RH  033%=      5-min Rain = 0
KWA1 190124Z 16011KT 34/15 A2989 RMK A01 T03360153  RH  033%=      5-min Rain = 0
KWA1 190125Z 16011KT 34/15 A2989 RMK A01 T03350153  RH  033%=      5-min Rain = 0
KWA1 190126Z 16010KT 34/15 A2989 RMK A01 T03350153  RH  034%=      5-min Rain = 0
KWA1 190127Z 15011KT 33/15 A2989 RMK A01 T03340152  RH  034%=      5-min Rain = 0
KWA1 190128Z 16011KT 33/15 A2989 RMK A01 T03340152  RH  034%=      5-min Rain = 0
KWA1 190129Z 16012KT 33/15 A2989 RMK A01 T03330152  RH  034%=      5-min Rain = 0
KWA1 190130Z 16011KT 33/15 A2989 RMK A01 T03330152  RH  034%=      5-min Rain = 0
KWA1 190131Z 15011G16KT 33/15 A2989 RMK A01 T03320152  RH  034%=      5-min Rain = 0
KWA1 190132Z 15012KT 33/15 A2989 RMK A01 T03320151  RH  034%=      5-min Rain = 0
KWA1 190133Z 16011KT 33/15 A2989 RMK A01 T03310151  RH  034%=      5-min Rain = 0
KWA1 190134Z 16012KT 33/15 A2989 RMK A01 T03310151  RH  034%=      5-min Rain = 0
KWA1 190135Z 16012KT 33/15 A2989 RMK A01 T03310151  RH  034%=      5-min Rain = 0
KWA1 190136Z 16012KT 33/15 A2989 RMK A01 T03300150  RH  034%=      5-min Rain = 0
KWA1 190137Z 16012KT 33/15 A2989 RMK A01 T03310150  RH  034%=      5-min Rain = 0
KWA1 190138Z 16012KT 33/15 A2989 RMK A01 T03300150  RH  034%=      5-min Rain = 0
KWA1 190139Z 16011KT 33/15 A2989 RMK A01 T03290150  RH  034%=      5-min Rain = 0
KWA1 190140Z 16011KT 33/15 A2989 RMK A01 T03290150  RH  034%=      5-min Rain = 0
KWA1 190141Z 16012KT 33/15 A2989 RMK A01 T03280150  RH  034%=      5-min Rain = 0
KWA1 190142Z 16010KT 33/15 A2989 RMK A01 T03280150  RH  034%=      5-min Rain = 0
KWA1 190143Z 16010KT 33/15 A2989 RMK A01 T03270150  RH  034%=      5-min Rain = 0
KWA1 190144Z 16011KT 33/15 A2989 RMK A01 T03260149  RH  034%=      5-min Rain = 0
KWA1 190145Z 16011KT 33/15 A2989 RMK A01 T03260149  RH  034%=      5-min Rain = 0
KWA1 190146Z 16010KT 33/15 A2989 RMK A01 T03260150  RH  035%=      5-min Rain = 0
KWA1 190147Z 16010KT 33/15 A2989 RMK A01 T03250150  RH  035%=      5-min Rain = 0
KWA1 190148Z 16011KT 32/15 A2989 RMK A01 T03240150  RH  035%=      5-min Rain = 0
KWA1 190149Z 16010KT 32/15 A2989 RMK A01 T03230149  RH  035%=      5-min Rain = 0
KWA1 190150Z 16010KT 32/15 A299 RMK A01 T03230149  RH  035%=      5-min Rain = 0
KWA1 190151Z 16009KT 32/15 A299 RMK A01 T03230149  RH  035%=      5-min Rain = 0
KWA1 190152Z 16010KT 32/15 A299 RMK A01 T03220149  RH  035%=      5-min Rain = 0
KWA1 190153Z 16010KT 32/15 A299 RMK A01 T03220149  RH  035%=      5-min Rain = 0
KWA1 190154Z 16010KT 32/15 A299 RMK A01 T03210149  RH  035%=      5-min Rain = 0
KWA1 190155Z 16010KT 32/15 A299 RMK A01 T03210149  RH  035%=      5-min Rain = 0
KWA1 190156Z 16010KT 32/15 A299 RMK A01 T03210149  RH  036%=      5-min Rain = 0
KWA1 190157Z 16009KT 32/15 A299 RMK A01 T03200149  RH  036%=      5-min Rain = 0
KWA1 190158Z 16010KT 32/15 A299 RMK A01 T03200149  RH  036%=      5-min Rain = 0
KWA1 190159Z 16010KT 32/15 A299 RMK A01 T03190149  RH  036%=      5-min Rain = 0
KWA1 190200Z 16010KT 32/15 A299 RMK A01 T03190149  RH  036%=      5-min Rain = 0
KWA1 190201Z 16009KT 32/15 A299 RMK A01 T03180148  RH  036%=      5-min Rain = 0
KWA1 190202Z 16009KT 32/15 A299 RMK A01 T03180149  RH  036%=      5-min Rain = 0
KWA1 190203Z 16009KT 32/15 A299 RMK A01 T03170148  RH  036%=      5-min Rain = 0
KWA1 190204Z 16009KT 32/15 A299 RMK A01 T03170149  RH  036%=      5-min Rain = 0
KWA1 190205Z 16009KT 32/15 A299 RMK A01 T03160148  RH  036%=      5-min Rain = 0
KWA1 190206Z 16010KT 32/15 A299 RMK A01 T03160148  RH  036%=      5-min Rain = 0
KWA1 190207Z 16009KT 32/15 A299 RMK A01 T03150148  RH  036%=      5-min Rain = 0
KWA1 190208Z 16009KT 32/15 A299 RMK A01 T03150149  RH  037%=      5-min Rain = 0
KWA1 190209Z 16009KT 31/15 A299 RMK A01 T03140149  RH  037%=      5-min Rain = 0
KWA1 190210Z 16009KT 31/15 A299 RMK A01 T03130148  RH  037%=      5-min Rain = 0
KWA1 190211Z 16009KT 31/15 A299 RMK A01 T03130148  RH  037%=      5-min Rain = 0
KWA1 190212Z 16008KT 31/15 A299 RMK A01 T03130149  RH  037%=      5-min Rain = 0
KWA1 190213Z 16009KT 31/15 A299 RMK A01 T03120149  RH  037%=      5-min Rain = 0
KWA1 190214Z 16009KT 31/15 A299 RMK A01 T03110149  RH  037%=      5-min Rain = 0
KWA1 190215Z 16009KT 31/15 A299 RMK A01 T03110149  RH  038%=      5-min Rain = 0
KWA1 190216Z 15009KT 31/15 A299 RMK A01 T03100149  RH  038%=      5-min Rain = 0
KWA1 190217Z 16009KT 31/15 A299 RMK A01 T03100149  RH  038%=      5-min Rain = 0
KWA1 190218Z 16009KT 31/15 A299 RMK A01 T03090149  RH  038%=      5-min Rain = 0
KWA1 190219Z 16009KT 31/15 A299 RMK A01 T03090149  RH  038%=      5-min Rain = 0
KWA1 190220Z 16009KT 31/15 A299 RMK A01 T03080149  RH  038%=      5-min Rain = 0
KWA1 190221Z 16009KT 31/15 A299 RMK A01 T03080149  RH  038%=      5-min Rain = 0
KWA1 190222Z 16009KT 31/15 A299 RMK A01 T03080150  RH  038%=      5-min Rain = 0
KWA1 190223Z 15009KT 31/15 A299 RMK A01 T03070149  RH  038%=      5-min Rain = 0
KWA1 190224Z 16009KT 31/15 A299 RMK A01 T03070149  RH  038%=      5-min Rain = 0
KWA1 190225Z 16009KT 31/15 A299 RMK A01 T03070149  RH  038%=      5-min Rain = 0
KWA1 190226Z 16009KT 31/15 A299 RMK A01 T03070149  RH  038%=      5-min Rain = 0
KWA1 190227Z 16009KT 31/15 A299 RMK A01 T03060149  RH  039%=      5-min Rain = 0
KWA1 190228Z 16009KT 31/15 A2991 RMK A01 T03060149  RH  039%=      5-min Rain = 0
KWA1 190229Z 16010KT 31/15 A2991 RMK A01 T03060150  RH  039%=      5-min Rain = 0
KWA1 190230Z 15009KT 31/15 A2991 RMK A01 T03050150  RH  039%=      5-min Rain = 0
KWA1 190231Z 16009KT 31/15 A2991 RMK A01 T03050150  RH  039%=      5-min Rain = 0
KWA1 190232Z 15008KT 30/15 A2991 RMK A01 T03040149  RH  039%=      5-min Rain = 0
KWA1 190233Z 16008KT 30/15 A2991 RMK A01 T03030150  RH  039%=      5-min Rain = 0
KWA1 190234Z 15009KT 30/15 A2991 RMK A01 T03030150  RH  039%=      5-min Rain = 0
KWA1 190235Z 16008KT 30/15 A2991 RMK A01 T03020150  RH  040%=      5-min Rain = 0
KWA1 190236Z 16008KT 30/15 A2991 RMK A01 T03020150  RH  040%=      5-min Rain = 0
KWA1 190237Z 16008KT 30/15 A2991 RMK A01 T03010150  RH  040%=      5-min Rain = 0
KWA1 190238Z 16008KT 30/15 A2991 RMK A01 T03000150  RH  040%=      5-min Rain = 0
KWA1 190239Z 16008KT 30/15 A2991 RMK A01 T03000150  RH  040%=      5-min Rain = 0
KWA1 190240Z 16008KT 30/15 A2991 RMK A01 T03000151  RH  040%=      5-min Rain = 0
KWA1 190241Z 16008KT 30/15 A2991 RMK A01 T02990151  RH  040%=      5-min Rain = 0
KWA1 190242Z 16008KT 30/15 A2991 RMK A01 T02990151  RH  041%=      5-min Rain = 0
KWA1 190243Z 16008KT 30/15 A2991 RMK A01 T02980151  RH  041%=      5-min Rain = 0
KWA1 190244Z 16007KT 30/15 A2991 RMK A01 T02970151  RH  041%=      5-min Rain = 0
KWA1 190245Z 16008KT 30/15 A2991 RMK A01 T02970151  RH  041%=      5-min Rain = 0
KWA1 190246Z 16008KT 30/15 A2991 RMK A01 T02970151  RH  041%=      5-min Rain = 0
KWA1 190247Z 16008KT 30/15 A2991 RMK A01 T02960151  RH  041%=      5-min Rain = 0
KWA1 190248Z 16007KT 30/15 A2991 RMK A01 T02950151  RH  042%=      5-min Rain = 0
KWA1 190249Z 16007KT 30/15 A2991 RMK A01 T02950151  RH  042%=      5-min Rain = 0
KWA1 190250Z 16007KT 29/15 A2991 RMK A01 T02940151  RH  042%=      5-min Rain = 0
KWA1 190251Z 15007KT 29/15 A2991 RMK A01 T02930151  RH  042%=      5-min Rain = 0
KWA1 190252Z 15007KT 29/15 A2991 RMK A01 T02920151  RH  042%=      5-min Rain = 0
KWA1 190253Z 15008KT 29/15 A2991 RMK A01 T02920151  RH  042%=      5-min Rain = 0
KWA1 190254Z 15008KT 29/15 A2991 RMK A01 T02910151  RH  043%=      5-min Rain = 0
KWA1 190255Z 14008KT 29/15 A2991 RMK A01 T02910152  RH  043%=      5-min Rain = 0
KWA1 190256Z 14008KT 29/15 A2991 RMK A01 T02910152  RH  043%=      5-min Rain = 0
KWA1 190257Z 14008KT 29/15 A2991 RMK A01 T02910152  RH  043%=      5-min Rain = 0
KWA1 190258Z 14008KT 29/15 A2991 RMK A01 T02910152  RH  043%=      5-min Rain = 0
KWA1 190259Z 14007KT 29/15 A2991 RMK A01 T02920152  RH  043%=      5-min Rain = 0
KWA1 190300Z 14007KT 29/15 A2991 RMK A01 T02920151  RH  042%=      5-min Rain = 0
KWA1 190301Z 14007KT 29/15 A2992 RMK A01 T02920151  RH  042%=      5-min Rain = 0
KWA1 190302Z 14007KT 29/15 A2992 RMK A01 T02910151  RH  042%=      5-min Rain = 0
KWA1 190303Z 14007KT 29/15 A2992 RMK A01 T02900151  RH  043%=      5-min Rain = 0
KWA1 190304Z 14007KT 29/15 A2992 RMK A01 T02900152  RH  043%=      5-min Rain = 0
KWA1 190305Z 14007KT 29/15 A2992 RMK A01 T02900152  RH  043%=      5-min Rain = 0
KWA1 190306Z 15007KT 29/15 A2992 RMK A01 T02900152  RH  043%=      5-min Rain = 0
KWA1 190307Z 15007KT 29/15 A2992 RMK A01 T02900152  RH  043%=      5-min Rain = 0
KWA1 190308Z 14007KT 29/15 A2992 RMK A01 T02890152  RH  043%=      5-min Rain = 0
KWA1 190309Z 14007KT 29/15 A2992 RMK A01 T02880152  RH  043%=      5-min Rain = 0
KWA1 190310Z 14007KT 29/15 A2992 RMK A01 T02870151  RH  044%=      5-min Rain = 0
KWA1 190311Z 14007KT 29/15 A2992 RMK A01 T02880152  RH  044%=      5-min Rain = 0
KWA1 190312Z 14007KT 29/15 A2992 RMK A01 T02880152  RH  044%=      5-min Rain = 0
KWA1 190313Z 14007KT 29/15 A2992 RMK A01 T02880153  RH  044%=      5-min Rain = 0
KWA1 190314Z 14007KT 29/15 A2992 RMK A01 T02870152  RH  044%=      5-min Rain = 0
KWA1 190315Z 14007KT 29/15 A2992 RMK A01 T02880153  RH  044%=      5-min Rain = 0
KWA1 190316Z 14006KT 29/15 A2992 RMK A01 T02890153  RH  044%=      5-min Rain = 0
KWA1 190317Z 14006KT 29/15 A2992 RMK A01 T02890153  RH  044%=      5-min Rain = 0
KWA1 190318Z 14007KT 29/15 A2992 RMK A01 T02880153  RH  044%=      5-min Rain = 0
KWA1 190319Z 15007KT 29/15 A2992 RMK A01 T02880154  RH  044%=      5-min Rain = 0
KWA1 190320Z 14007KT 29/15 A2992 RMK A01 T02880154  RH  044%=      5-min Rain = 0
KWA1 190321Z 14007KT 29/16 A2992 RMK A01 T02880155  RH  044%=      5-min Rain = 0
KWA1 190322Z 14008KT 29/16 A2992 RMK A01 T02870155  RH  044%=      5-min Rain = 0
KWA1 190323Z 15008KT 29/16 A2992 RMK A01 T02880155  RH  045%=      5-min Rain = 0
KWA1 190324Z 14008KT 29/16 A2992 RMK A01 T02870155  RH  045%=      5-min Rain = 0
KWA1 190325Z 14008KT 29/16 A2992 RMK A01 T02870155  RH  045%=      5-min Rain = 0
KWA1 190326Z 15008KT 29/16 A2992 RMK A01 T02870156  RH  045%=      5-min Rain = 0
KWA1 190327Z 15008KT 29/16 A2992 RMK A01 T02860157  RH  045%=      5-min Rain = 0
KWA1 190328Z 14008KT 29/16 A2992 RMK A01 T02860157  RH  045%=      5-min Rain = 0
KWA1 190329Z 15007KT 29/16 A2992 RMK A01 T02860157  RH  046%=      5-min Rain = 0
KWA1 190330Z 15008KT 29/16 A2992 RMK A01 T02860158  RH  046%=      5-min Rain = 0
KWA1 190331Z 15008KT 29/16 A2992 RMK A01 T02860158  RH  046%=      5-min Rain = 0
KWA1 190332Z 15008KT 29/16 A2992 RMK A01 T02860158  RH  046%=      5-min Rain = 0
KWA1 190333Z 15007KT 29/16 A2992 RMK A01 T02850158  RH  046%=      5-min Rain = 0
KWA1 190334Z 15007KT 28/16 A2992 RMK A01 T02840158  RH  046%=      5-min Rain = 0
KWA1 190335Z 15006KT 28/16 A2992 RMK A01 T02830158  RH  046%=      5-min Rain = 0
KWA1 190336Z 15006KT 28/16 A2992 RMK A01 T02830158  RH  047%=      5-min Rain = 0
KWA1 190337Z 15006KT 28/16 A2992 RMK A01 T02820158  RH  047%=      5-min Rain = 0
KWA1 190338Z 15006KT 28/16 A2992 RMK A01 T02810158  RH  047%=      5-min Rain = 0
KWA1 190339Z 15006KT 28/16 A2992 RMK A01 T02800158  RH  047%=      5-min Rain = 0
KWA1 190340Z 15006KT 28/16 A2992 RMK A01 T02790158  RH  048%=      5-min Rain = 0
KWA1 190341Z 15006KT 28/16 A2992 RMK A01 T02780158  RH  048%=      5-min Rain = 0
KWA1 190342Z 15006KT 28/16 A2992 RMK A01 T02780158  RH  048%=      5-min Rain = 0
KWA1 190343Z 15006KT 28/16 A2992 RMK A01 T02770158  RH  048%=      5-min Rain = 0
KWA1 190344Z 15006KT 28/16 A2992 RMK A01 T02760158  RH  049%=      5-min Rain = 0
KWA1 190345Z 15006KT 28/16 A2993 RMK A01 T02750159  RH  049%=      5-min Rain = 0
KWA1 190346Z 15006KT 28/16 A2993 RMK A01 T02750158  RH  049%=      5-min Rain = 0
KWA1 190347Z 15006KT 27/16 A2993 RMK A01 T02740158  RH  049%=      5-min Rain = 0
KWA1 190348Z 15006KT 27/16 A2993 RMK A01 T02740158  RH  049%=      5-min Rain = 0
KWA1 190349Z 15006KT 27/16 A2993 RMK A01 T02730158  RH  049%=      5-min Rain = 0
KWA1 190350Z 15006KT 27/16 A2993 RMK A01 T02730158  RH  050%=      5-min Rain = 0
KWA1 190351Z 15006KT 27/16 A2993 RMK A01 T02720158  RH  050%=      5-min Rain = 0
KWA1 190352Z 15006KT 27/16 A2993 RMK A01 T02720158  RH  050%=      5-min Rain = 0
KWA1 190353Z 15006KT 27/16 A2993 RMK A01 T02710158  RH  050%=      5-min Rain = 0
KWA1 190354Z 15006KT 27/16 A2993 RMK A01 T02710159  RH  050%=      5-min Rain = 0
KWA1 190355Z 15007KT 27/16 A2993 RMK A01 T02700159  RH  051%=      5-min Rain = 0
KWA1 190356Z 15007KT 27/16 A2993 RMK A01 T02700159  RH  051%=      5-min Rain = 0
KWA1 190357Z 15007KT 27/16 A2993 RMK A01 T02700159  RH  051%=      5-min Rain = 0
KWA1 190358Z 15007KT 27/16 A2993 RMK A01 T02700160  RH  051%=      5-min Rain = 0
KWA1 190359Z 15007KT 27/16 A2993 RMK A01 T02700160  RH  051%=      5-min Rain = 0
KWA1 190400Z 15007KT 27/16 A2993 RMK A01 T02700160  RH  051%=      5-min Rain = 0
KWA1 190401Z 15007KT 27/16 A2993 RMK A01 T02700160  RH  051%=      5-min Rain = 0
KWA1 190402Z 15007KT 27/16 A2993 RMK A01 T02700161  RH  051%=      5-min Rain = 0
KWA1 190403Z 15008KT 27/16 A2993 RMK A01 T02700162  RH  051%=      5-min Rain = 0
KWA1 190404Z 15007KT 27/16 A2993 RMK A01 T02700162  RH  051%=      5-min Rain = 0
KWA1 190405Z 15008KT 27/16 A2993 RMK A01 T02700162  RH  052%=      5-min Rain = 0
KWA1 190406Z 15008KT 27/16 A2993 RMK A01 T02710163  RH  052%=      5-min Rain = 0
KWA1 190407Z 15008KT 27/16 A2994 RMK A01 T02710163  RH  052%=      5-min Rain = 0
KWA1 190408Z 15008KT 27/16 A2994 RMK A01 T02700163  RH  052%=      5-min Rain = 0
KWA1 190409Z 15008KT 27/16 A2994 RMK A01 T02710163  RH  052%=      5-min Rain = 0
KWA1 190410Z 15008KT 27/16 A2994 RMK A01 T02710163  RH  052%=      5-min Rain = 0
KWA1 190411Z 15007KT 27/16 A2994 RMK A01 T02710164  RH  052%=      5-min Rain = 0
KWA1 190412Z 15008KT 27/16 A2994 RMK A01 T02710164  RH  052%=      5-min Rain = 0
KWA1 190413Z 15008KT 27/16 A2994 RMK A01 T02720164  RH  052%=      5-min Rain = 0
KWA1 190414Z 15007KT 27/16 A2994 RMK A01 T02720164  RH  052%=      5-min Rain = 0
KWA1 190415Z 15007KT 27/16 A2994 RMK A01 T02720164  RH  052%=      5-min Rain = 0
KWA1 190416Z 14008KT 27/16 A2994 RMK A01 T02720164  RH  052%=      5-min Rain = 0
KWA1 190417Z 15008KT 27/17 A2994 RMK A01 T02730165  RH  052%=      5-min Rain = 0
KWA1 190418Z 15008KT 27/17 A2994 RMK A01 T02730165  RH  051%=      5-min Rain = 0
KWA1 190419Z 15008KT 27/17 A2994 RMK A01 T02740165  RH  051%=      5-min Rain = 0
KWA1 190420Z 15008KT 27/17 A2994 RMK A01 T02730165  RH  052%=      5-min Rain = 0
KWA1 190421Z 15008KT 27/17 A2994 RMK A01 T02740165  RH  051%=      5-min Rain = 0
KWA1 190422Z 15008KT 27/17 A2994 RMK A01 T02740165  RH  051%=      5-min Rain = 0
KWA1 190423Z 15008KT 27/17 A2994 RMK A01 T02740165  RH  051%=      5-min Rain = 0
KWA1 190424Z 15009KT 28/17 A2994 RMK A01 T02750166  RH  051%=      5-min Rain = 0
KWA1 190425Z 15009KT 28/17 A2994 RMK A01 T02750166  RH  051%=      5-min Rain = 0
KWA1 190426Z 15008KT 28/17 A2994 RMK A01 T02760166  RH  051%=      5-min Rain = 0
KWA1 190427Z 15008KT 28/17 A2994 RMK A01 T02760166  RH  051%=      5-min Rain = 0
KWA1 190428Z 15008KT 28/17 A2994 RMK A01 T02760166  RH  051%=      5-min Rain = 0
KWA1 190429Z 15009KT 28/17 A2994 RMK A01 T02760166  RH  051%=      5-min Rain = 0
KWA1 190430Z 15009KT 28/17 A2994 RMK A01 T02770167  RH  051%=      5-min Rain = 0
KWA1 190431Z 15009KT 28/17 A2994 RMK A01 T02770167  RH  051%=      5-min Rain = 0
KWA1 190432Z 15009KT 28/17 A2994 RMK A01 T02770167  RH  051%=      5-min Rain = 0
KWA1 190433Z 14009KT 28/17 A2994 RMK A01 T02770167  RH  051%=      5-min Rain = 0
KWA1 190434Z 14009KT 28/17 A2994 RMK A01 T02770168  RH  051%=      5-min Rain = 0
KWA1 190435Z 14008KT 28/17 A2994 RMK A01 T02770168  RH  051%=      5-min Rain = 0
KWA1 190436Z 14008KT 28/17 A2994 RMK A01 T02780168  RH  051%=      5-min Rain = 0
KWA1 190437Z 14009KT 28/17 A2994 RMK A01 T02770168  RH  051%=      5-min Rain = 0
KWA1 190438Z 14009KT 28/17 A2994 RMK A01 T02780168  RH  051%=      5-min Rain = 0
KWA1 190439Z 14008KT 28/17 A2994 RMK A01 T02770168  RH  051%=      5-min Rain = 0
KWA1 190440Z 14008KT 28/17 A2994 RMK A01 T02770168  RH  051%=      5-min Rain = 0
KWA1 190441Z 14008KT 28/17 A2994 RMK A01 T02760168  RH  052%=      5-min Rain = 0
KWA1 190442Z 15009KT 28/17 A2994 RMK A01 T02760168  RH  052%=      5-min Rain = 0
KWA1 190443Z 14009KT 28/17 A2994 RMK A01 T02760168  RH  052%=      5-min Rain = 0
KWA1 190444Z 15008KT 28/17 A2995 RMK A01 T02760169  RH  052%=      5-min Rain = 0
KWA1 190445Z 14009KT 28/17 A2995 RMK A01 T02750169  RH  052%=      5-min Rain = 0
KWA1 190446Z 15009KT 28/17 A2995 RMK A01 T02750168  RH  052%=      5-min Rain = 0
KWA1 190447Z 15009KT 27/17 A2995 RMK A01 T02740168  RH  052%=      5-min Rain = 0
KWA1 190448Z 15008KT 27/17 A2995 RMK A01 T02740169  RH  053%=      5-min Rain = 0
KWA1 190449Z 15009KT 27/17 A2995 RMK A01 T02740169  RH  053%=      5-min Rain = 0
KWA1 190450Z 15009KT 27/17 A2995 RMK A01 T02740169  RH  053%=      5-min Rain = 0
KWA1 190451Z 15009KT 27/17 A2995 RMK A01 T02730169  RH  053%=      5-min Rain = 0
KWA1 190452Z 15009KT 27/17 A2995 RMK A01 T02730169  RH  053%=      5-min Rain = 0
KWA1 190453Z 15009KT 27/17 A2995 RMK A01 T02730169  RH  053%=      5-min Rain = 0
KWA1 190454Z 14009KT 27/17 A2995 RMK A01 T02730169  RH  053%=      5-min Rain = 0
KWA1 190455Z 15009KT 27/17 A2995 RMK A01 T02740170  RH  053%=      5-min Rain = 0
KWA1 190456Z 15009KT 27/17 A2995 RMK A01 T02740170  RH  053%=      5-min Rain = 0
KWA1 190457Z 15009KT 27/17 A2995 RMK A01 T02740170  RH  053%=      5-min Rain = 0
KWA1 190458Z 15009KT 27/17 A2995 RMK A01 T02740170  RH  053%=      5-min Rain = 0
KWA1 190459Z 15009KT 27/17 A2995 RMK A01 T02740171  RH  053%=      5-min Rain = 0

Page generated in 0.1216 seconds.